Time,TemperatureF,DewpointF,PressureIn,WindDirection,WindDirectionDegrees,WindSpeedMPH,WindSpeedGustMPH,Humidity,HourlyPrecipIn,Conditions,Clouds,dailyrainin,SoftwareType,DateUTC
2013-06-29 00:01:00,78.6,73.0,29.71,South,172,3.1,5.8,83,0.00,,---,0.00,VWS V14.01,2013-06-29 04:01:00,
2013-06-29 00:06:00,78.6,73.0,29.71,South,181,6.3,6.3,83,0.00,,---,0.00,VWS V14.01,2013-06-29 04:06:00,
2013-06-29 00:11:00,78.6,73.0,29.71,South,179,3.6,3.6,83,0.00,,---,0.00,VWS V14.01,2013-06-29 04:11:00,
2013-06-29 00:16:00,78.6,73.4,29.71,SSW,210,4.0,4.0,84,0.00,,---,0.00,VWS V14.01,2013-06-29 04:16:00,
2013-06-29 00:21:00,78.4,73.2,29.71,SE,132,2.7,4.0,84,0.00,,---,0.00,VWS V14.01,2013-06-29 04:21:00,
2013-06-29 00:26:00,78.4,73.2,29.71,ESE,111,2.7,2.7,84,0.00,,---,0.00,VWS V14.01,2013-06-29 04:26:00,
2013-06-29 00:31:00,78.4,73.2,29.71,SSW,203,3.6,3.6,84,0.00,,---,0.00,VWS V14.01,2013-06-29 04:31:00,
2013-06-29 00:36:00,78.4,73.2,29.68,SE,138,6.3,6.3,84,0.00,,---,0.00,VWS V14.01,2013-06-29 04:36:00,
2013-06-29 00:41:00,78.4,73.2,29.68,SE,143,4.0,4.0,84,0.00,,---,0.00,VWS V14.01,2013-06-29 04:41:00,
2013-06-29 00:46:00,78.4,73.2,29.68,West,275,0.0,0.0,84,0.00,,---,0.00,VWS V14.01,2013-06-29 04:46:00,
2013-06-29 00:51:00,78.4,73.6,29.68,SSE,160,5.4,5.4,85,0.00,,---,0.00,VWS V14.01,2013-06-29 04:51:00,
2013-06-29 00:56:00,78.6,73.7,29.71,NNE,20,0.0,3.6,85,0.00,,---,0.00,VWS V14.01,2013-06-29 04:56:00,
2013-06-29 01:01:00,78.6,73.7,29.71,SSW,199,2.2,3.6,85,0.00,,---,0.00,VWS V14.01,2013-06-29 05:01:00,
2013-06-29 01:02:00,78.6,73.7,29.71,SSW,199,2.2,3.6,85,0.00,,---,0.00,VWS V14.01,2013-06-29 05:02:00,
2013-06-29 01:06:00,78.6,73.7,29.68,SW,229,8.1,8.1,85,0.00,,---,0.00,VWS V14.01,2013-06-29 05:06:00,
2013-06-29 01:07:00,78.6,73.7,29.68,SW,229,8.1,8.1,85,0.00,,---,0.00,VWS V14.01,2013-06-29 05:07:00,
2013-06-29 01:11:00,78.6,73.7,29.68,SW,225,3.1,3.1,85,0.00,,---,0.00,VWS V14.01,2013-06-29 05:11:00,
2013-06-29 01:12:00,78.6,73.7,29.68,SW,225,3.1,3.1,85,0.00,,---,0.00,VWS V14.01,2013-06-29 05:12:00,
2013-06-29 01:16:00,78.6,73.4,29.68,SSE,159,5.4,5.4,84,0.00,,---,0.00,VWS V14.01,2013-06-29 05:16:00,
2013-06-29 01:17:00,78.6,73.4,29.68,SSE,159,5.4,5.4,84,0.00,,---,0.00,VWS V14.01,2013-06-29 05:17:00,
2013-06-29 01:21:00,78.6,73.4,29.68,WNW,292,5.4,5.4,84,0.00,,---,0.00,VWS V14.01,2013-06-29 05:21:00,
2013-06-29 01:22:00,78.6,73.4,29.68,WNW,292,5.4,5.4,84,0.00,,---,0.00,VWS V14.01,2013-06-29 05:22:00,
2013-06-29 01:26:00,78.6,73.0,29.68,SSW,198,4.9,4.9,83,0.00,,---,0.00,VWS V14.01,2013-06-29 05:26:00,
2013-06-29 01:27:00,78.6,73.0,29.68,SSW,198,4.9,4.9,83,0.00,,---,0.00,VWS V14.01,2013-06-29 05:27:00,
2013-06-29 01:31:00,78.6,73.0,29.68,SSW,204,12.3,12.3,83,0.00,,---,0.00,VWS V14.01,2013-06-29 05:31:00,
2013-06-29 01:32:00,78.6,73.0,29.68,SSW,204,12.3,12.3,83,0.00,,---,0.00,VWS V14.01,2013-06-29 05:32:00,
2013-06-29 01:37:00,78.4,72.5,29.68,SE,143,3.6,3.6,82,0.00,,---,0.00,VWS V14.01,2013-06-29 05:37:00,
2013-06-29 01:42:00,78.6,72.7,29.68,SE,146,5.4,5.4,82,0.00,,---,0.00,VWS V14.01,2013-06-29 05:42:00,
2013-06-29 01:47:00,78.6,71.9,29.68,SSE,166,6.3,6.3,80,0.00,,---,0.00,VWS V14.01,2013-06-29 05:47:00,
2013-06-29 01:52:00,78.6,71.9,29.68,SSE,165,0.0,0.0,80,0.00,,---,0.00,VWS V14.01,2013-06-29 05:52:00,
2013-06-29 01:57:00,78.6,71.6,29.68,SSE,147,2.7,2.7,79,0.00,,---,0.00,VWS V14.01,2013-06-29 05:57:00,
2013-06-29 02:02:00,78.6,71.2,29.68,NE,35,4.9,4.9,78,0.00,,---,0.00,VWS V14.01,2013-06-29 06:02:00,
2013-06-29 02:03:00,78.6,71.2,29.68,SW,232,3.1,4.9,78,0.00,,---,0.00,VWS V14.01,2013-06-29 06:03:00,
2013-06-29 02:07:00,78.6,70.8,29.68,SSE,153,5.4,5.4,77,0.00,,---,0.00,VWS V14.01,2013-06-29 06:07:00,
2013-06-29 02:08:00,78.6,70.8,29.68,ESE,108,2.7,5.4,77,0.00,,---,0.00,VWS V14.01,2013-06-29 06:08:00,
2013-06-29 02:12:00,78.6,70.4,29.68,ESE,103,2.2,2.2,76,0.00,,---,0.00,VWS V14.01,2013-06-29 06:12:00,
2013-06-29 02:13:00,78.6,70.4,29.68,SW,217,4.9,4.9,76,0.00,,---,0.00,VWS V14.01,2013-06-29 06:13:00,
2013-06-29 02:17:00,78.6,70.4,29.68,West,262,3.6,3.6,76,0.00,,---,0.00,VWS V14.01,2013-06-29 06:17:00,
2013-06-29 02:18:00,78.6,69.7,29.68,West,262,3.6,3.6,74,0.00,,---,0.00,VWS V14.01,2013-06-29 06:18:00,
2013-06-29 02:22:00,78.6,69.2,29.68,SSW,201,3.6,4.0,73,0.00,,---,0.00,VWS V14.01,2013-06-29 06:22:00,
2013-06-29 02:23:00,78.6,69.2,29.68,SSW,201,3.6,4.0,73,0.00,,---,0.00,VWS V14.01,2013-06-29 06:23:00,
2013-06-29 02:27:00,78.6,68.4,29.68,SSE,156,4.0,4.0,71,0.00,,---,0.00,VWS V14.01,2013-06-29 06:27:00,
2013-06-29 02:28:00,78.6,68.4,29.68,SSE,156,4.0,4.0,71,0.00,,---,0.00,VWS V14.01,2013-06-29 06:28:00,
2013-06-29 02:32:00,78.6,68.0,29.68,SW,230,4.9,7.6,70,0.00,,---,0.00,VWS V14.01,2013-06-29 06:32:00,
2013-06-29 02:33:00,78.6,68.0,29.68,SW,224,8.7,8.7,70,0.00,,---,0.00,VWS V14.01,2013-06-29 06:33:00,
2013-06-29 02:37:00,78.6,68.0,29.68,WSW,248,6.3,6.3,70,0.00,,---,0.00,VWS V14.01,2013-06-29 06:37:00,
2013-06-29 02:38:00,78.6,68.0,29.68,WSW,248,6.3,6.3,70,0.00,,---,0.00,VWS V14.01,2013-06-29 06:38:00,
2013-06-29 02:42:00,78.6,68.0,29.68,SSW,202,7.6,7.6,70,0.00,,---,0.00,VWS V14.01,2013-06-29 06:42:00,
2013-06-29 02:43:00,78.6,68.0,29.68,SSW,207,4.0,4.0,70,0.00,,---,0.00,VWS V14.01,2013-06-29 06:43:00,
2013-06-29 02:47:00,78.6,68.0,29.68,SSW,192,6.3,6.3,70,0.00,,---,0.00,VWS V14.01,2013-06-29 06:47:00,
2013-06-29 02:48:00,78.6,68.0,29.68,SSW,192,6.3,6.3,70,0.00,,---,0.00,VWS V14.01,2013-06-29 06:48:00,
2013-06-29 02:52:00,78.6,68.4,29.68,SSW,195,6.7,6.7,71,0.00,,---,0.00,VWS V14.01,2013-06-29 06:52:00,
2013-06-29 02:53:00,78.6,68.4,29.68,SSE,160,8.1,8.1,71,0.00,,---,0.00,VWS V14.01,2013-06-29 06:53:00,
2013-06-29 02:57:00,78.6,68.4,29.68,SE,141,6.3,6.3,71,0.00,,---,0.00,VWS V14.01,2013-06-29 06:57:00,
2013-06-29 02:58:00,78.6,68.4,29.68,SSW,207,5.4,5.4,71,0.00,,---,0.00,VWS V14.01,2013-06-29 06:58:00,
2013-06-29 03:02:00,78.6,68.4,29.68,SSE,147,4.0,4.0,71,0.00,,---,0.00,VWS V14.01,2013-06-29 07:02:00,
2013-06-29 03:03:00,78.6,68.4,29.68,SSE,147,4.0,4.0,71,0.00,,---,0.00,VWS V14.01,2013-06-29 07:03:00,
2013-06-29 03:07:00,78.4,68.7,29.65,SSE,153,5.8,7.6,72,0.00,,---,0.00,VWS V14.01,2013-06-29 07:07:00,
2013-06-29 03:08:00,78.4,68.7,29.65,SE,140,4.9,7.6,72,0.00,,---,0.00,VWS V14.01,2013-06-29 07:08:00,
2013-06-29 03:09:00,78.3,68.9,29.65,SE,140,4.9,4.9,73,0.00,,---,0.00,VWS V14.01,2013-06-29 07:09:00,
2013-06-29 03:13:00,78.3,69.3,29.65,SE,137,5.8,5.8,74,0.00,,---,0.00,VWS V14.01,2013-06-29 07:13:00,
2013-06-29 03:14:00,78.3,69.3,29.65,SE,137,5.8,5.8,74,0.00,,---,0.00,VWS V14.01,2013-06-29 07:14:00,
2013-06-29 03:18:00,78.1,69.5,29.65,East,79,2.7,3.6,75,0.00,,---,0.00,VWS V14.01,2013-06-29 07:18:00,
2013-06-29 03:19:00,78.1,69.5,29.65,ESE,119,4.0,4.0,75,0.00,,---,0.00,VWS V14.01,2013-06-29 07:19:00,
2013-06-29 03:23:00,78.1,69.9,29.68,South,189,4.0,4.0,76,0.00,,---,0.00,VWS V14.01,2013-06-29 07:23:00,
2013-06-29 03:24:00,78.1,69.9,29.68,North,353,3.1,4.0,76,0.00,,---,0.00,VWS V14.01,2013-06-29 07:24:00,
2013-06-29 03:28:00,78.1,70.3,29.68,West,271,3.1,5.4,77,0.00,,---,0.00,VWS V14.01,2013-06-29 07:28:00,
2013-06-29 03:29:00,78.1,70.3,29.68,SSE,167,3.6,7.6,77,0.00,,---,0.00,VWS V14.01,2013-06-29 07:29:00,
2013-06-29 03:33:00,78.3,70.5,29.68,SSW,203,8.1,8.1,77,0.00,,---,0.00,VWS V14.01,2013-06-29 07:33:00,
2013-06-29 03:34:00,78.3,70.5,29.68,SSE,166,5.4,8.1,77,0.00,,---,0.00,VWS V14.01,2013-06-29 07:34:00,
2013-06-29 03:38:00,78.3,70.5,29.68,NW,325,4.0,4.0,77,0.00,,---,0.00,VWS V14.01,2013-06-29 07:38:00,
2013-06-29 03:39:00,78.3,70.5,29.68,NW,309,5.8,5.8,77,0.00,,---,0.00,VWS V14.01,2013-06-29 07:39:00,
2013-06-29 03:43:00,78.3,70.8,29.68,SSE,157,5.4,7.2,78,0.00,,---,0.00,VWS V14.01,2013-06-29 07:43:00,
2013-06-29 03:44:00,78.3,70.8,29.68,SSE,157,5.4,7.2,78,0.00,,---,0.00,VWS V14.01,2013-06-29 07:44:00,
2013-06-29 03:48:00,78.3,70.8,29.68,South,179,3.1,12.8,78,0.00,,---,0.00,VWS V14.01,2013-06-29 07:48:00,
2013-06-29 03:49:00,78.3,70.8,29.68,West,272,5.4,5.8,78,0.00,,---,0.00,VWS V14.01,2013-06-29 07:49:00,
2013-06-29 03:53:00,78.3,70.8,29.68,South,174,4.0,4.0,78,0.00,,---,0.00,VWS V14.01,2013-06-29 07:53:00,
2013-06-29 03:54:00,78.3,70.8,29.68,SW,233,7.6,7.6,78,0.00,,---,0.00,VWS V14.01,2013-06-29 07:54:00,
2013-06-29 03:58:00,78.4,70.6,29.68,South,183,8.3,8.3,77,0.00,,---,0.00,VWS V14.01,2013-06-29 07:58:00,
2013-06-29 03:59:00,78.4,70.6,29.68,South,183,8.3,8.3,77,0.00,,---,0.00,VWS V14.01,2013-06-29 07:59:00,
2013-06-29 04:03:00,78.4,70.6,29.68,South,186,5.4,5.4,77,0.00,,---,0.00,VWS V14.01,2013-06-29 08:03:00,
2013-06-29 04:04:00,78.4,70.6,29.68,South,186,5.4,5.4,77,0.00,,---,0.00,VWS V14.01,2013-06-29 08:04:00,
2013-06-29 04:08:00,78.4,70.6,29.68,SSW,197,8.1,8.1,77,0.00,,---,0.00,VWS V14.01,2013-06-29 08:08:00,
2013-06-29 04:09:00,78.4,70.6,29.68,SSW,197,8.1,8.1,77,0.00,,---,0.00,VWS V14.01,2013-06-29 08:09:00,
2013-06-29 04:13:00,78.4,70.6,29.68,SE,139,9.6,9.6,77,0.00,,---,0.00,VWS V14.01,2013-06-29 08:13:00,
2013-06-29 04:14:00,78.4,70.6,29.68,SE,139,9.6,9.6,77,0.00,,---,0.00,VWS V14.01,2013-06-29 08:14:00,
2013-06-29 04:18:00,78.4,70.6,29.68,SW,232,5.4,5.4,77,0.00,,---,0.00,VWS V14.01,2013-06-29 08:18:00,
2013-06-29 04:19:00,78.4,70.6,29.68,SSW,204,3.1,5.4,77,0.00,,---,0.00,VWS V14.01,2013-06-29 08:19:00,
2013-06-29 04:24:00,78.4,70.2,29.68,SSE,168,4.9,7.6,76,0.00,,---,0.00,VWS V14.01,2013-06-29 08:24:00,
2013-06-29 04:29:00,78.4,70.2,29.68,South,176,6.3,6.3,76,0.00,,---,0.00,VWS V14.01,2013-06-29 08:29:00,
2013-06-29 04:34:00,78.4,69.9,29.68,SE,145,3.1,3.1,75,0.00,,---,0.00,VWS V14.01,2013-06-29 08:34:00,
2013-06-29 04:39:00,78.3,69.7,29.68,SW,225,3.6,8.3,75,0.00,,---,0.00,VWS V14.01,2013-06-29 08:39:00,
2013-06-29 04:40:00,78.3,69.7,29.68,SW,225,3.6,3.6,75,0.00,,---,0.00,VWS V14.01,2013-06-29 08:40:00,
2013-06-29 04:44:00,78.3,69.7,29.68,SSW,202,6.7,10.1,75,0.00,,---,0.00,VWS V14.01,2013-06-29 08:44:00,
2013-06-29 04:45:00,78.3,69.7,29.68,SSE,161,11.0,11.0,75,0.00,,---,0.00,VWS V14.01,2013-06-29 08:45:00,
2013-06-29 04:49:00,78.3,69.7,29.68,SSW,199,2.7,2.7,75,0.00,,---,0.00,VWS V14.01,2013-06-29 08:49:00,
2013-06-29 04:50:00,78.3,69.7,29.68,SSW,199,2.7,2.7,75,0.00,,---,0.00,VWS V14.01,2013-06-29 08:50:00,
2013-06-29 04:54:00,78.3,69.7,29.68,SSW,207,4.0,8.1,75,0.00,,---,0.00,VWS V14.01,2013-06-29 08:54:00,
2013-06-29 04:55:00,78.3,69.3,29.68,SSE,153,3.1,8.1,74,0.00,,---,0.00,VWS V14.01,2013-06-29 08:55:00,
2013-06-29 04:59:00,78.3,68.9,29.68,SSW,195,3.6,3.6,73,0.00,,---,0.00,VWS V14.01,2013-06-29 08:59:00,
2013-06-29 05:00:00,78.3,68.9,29.68,SSW,195,3.6,3.6,73,0.00,,---,0.00,VWS V14.01,2013-06-29 09:00:00,
2013-06-29 05:04:00,78.3,68.9,29.68,SE,144,3.6,3.6,73,0.00,,---,0.00,VWS V14.01,2013-06-29 09:04:00,
2013-06-29 05:05:00,78.3,68.9,29.68,SE,144,3.6,3.6,73,0.00,,---,0.00,VWS V14.01,2013-06-29 09:05:00,
2013-06-29 05:09:00,78.3,68.9,29.68,SE,134,3.1,5.4,73,0.00,,---,0.00,VWS V14.01,2013-06-29 09:09:00,
2013-06-29 05:10:00,78.3,68.9,29.68,SE,134,3.1,5.4,73,0.00,,---,0.00,VWS V14.01,2013-06-29 09:10:00,
2013-06-29 05:14:00,78.3,68.9,29.68,West,277,5.4,5.4,73,0.00,,---,0.00,VWS V14.01,2013-06-29 09:14:00,
2013-06-29 05:15:00,78.3,68.9,29.68,West,277,5.4,5.4,73,0.00,,---,0.00,VWS V14.01,2013-06-29 09:15:00,
2013-06-29 05:19:00,78.3,68.9,29.68,SE,144,4.9,4.9,73,0.00,,---,0.00,VWS V14.01,2013-06-29 09:19:00,
2013-06-29 05:20:00,78.3,68.5,29.71,SE,145,3.6,4.9,72,0.00,,---,0.00,VWS V14.01,2013-06-29 09:20:00,
2013-06-29 05:24:00,78.3,68.5,29.71,SE,131,6.3,6.3,72,0.00,,---,0.00,VWS V14.01,2013-06-29 09:24:00,
2013-06-29 05:25:00,78.1,67.9,29.71,SW,232,5.4,5.4,71,0.00,,---,0.00,VWS V14.01,2013-06-29 09:25:00,
2013-06-29 05:29:00,78.1,68.3,29.71,SSE,155,3.6,4.5,72,0.00,,---,0.00,VWS V14.01,2013-06-29 09:29:00,
2013-06-29 05:30:00,78.1,68.3,29.71,SSW,195,4.0,4.0,72,0.00,,---,0.00,VWS V14.01,2013-06-29 09:30:00,
2013-06-29 05:31:00,78.1,68.3,29.71,SSE,155,10.5,10.5,72,0.00,,---,0.00,VWS V14.01,2013-06-29 09:31:00,
2013-06-29 05:34:00,78.1,68.3,29.71,SSE,161,3.1,3.1,72,0.00,,---,0.00,VWS V14.01,2013-06-29 09:34:00,
2013-06-29 05:35:00,78.1,68.3,29.71,SSE,156,5.8,7.2,72,0.00,,---,0.00,VWS V14.01,2013-06-29 09:35:00,
2013-06-29 05:36:00,78.1,67.9,29.71,SE,137,6.3,6.3,71,0.00,,---,0.00,VWS V14.01,2013-06-29 09:36:00,
2013-06-29 05:40:00,78.1,67.9,29.71,West,276,7.2,7.2,71,0.00,,---,0.00,VWS V14.01,2013-06-29 09:40:00,
2013-06-29 05:41:00,78.1,67.9,29.71,East,85,3.1,7.2,71,0.00,,---,0.00,VWS V14.01,2013-06-29 09:41:00,
2013-06-29 05:45:00,78.1,67.9,29.71,ESE,118,4.9,4.9,71,0.00,,---,0.00,VWS V14.01,2013-06-29 09:45:00,
2013-06-29 05:46:00,77.9,67.8,29.71,SW,234,3.1,8.1,71,0.00,,---,0.00,VWS V14.01,2013-06-29 09:46:00,
2013-06-29 05:50:00,77.9,68.2,29.71,South,169,2.7,2.7,72,0.00,,---,0.00,VWS V14.01,2013-06-29 09:50:00,
2013-06-29 05:51:00,77.9,68.2,29.71,SSW,210,3.6,4.9,72,0.00,,---,0.00,VWS V14.01,2013-06-29 09:51:00,
2013-06-29 05:55:00,77.9,68.2,29.71,SSW,208,0.0,0.0,72,0.00,,---,0.00,VWS V14.01,2013-06-29 09:55:00,
2013-06-29 05:56:00,77.9,68.2,29.71,NNE,14,3.6,3.6,72,0.00,,---,0.00,VWS V14.01,2013-06-29 09:56:00,
2013-06-29 06:00:00,77.9,68.6,29.71,SE,144,5.4,5.4,73,0.00,,---,0.00,VWS V14.01,2013-06-29 10:00:00,
2013-06-29 06:01:00,77.9,68.6,29.71,SSW,202,7.6,7.6,73,0.00,,---,0.00,VWS V14.01,2013-06-29 10:01:00,
2013-06-29 06:05:00,77.9,68.6,29.71,SE,140,7.6,7.6,73,0.00,,---,0.00,VWS V14.01,2013-06-29 10:05:00,
2013-06-29 06:06:00,77.9,68.6,29.71,SE,140,7.6,7.6,73,0.00,,---,0.00,VWS V14.01,2013-06-29 10:06:00,
2013-06-29 06:10:00,77.9,68.2,29.71,SSE,148,6.3,6.3,72,0.00,,---,0.00,VWS V14.01,2013-06-29 10:10:00,
2013-06-29 06:11:00,77.9,68.2,29.71,SSE,148,6.3,6.3,72,0.00,,---,0.00,VWS V14.01,2013-06-29 10:11:00,
2013-06-29 06:15:00,77.7,68.0,29.71,SW,235,5.8,5.8,72,0.00,,---,0.00,VWS V14.01,2013-06-29 10:15:00,
2013-06-29 06:16:00,77.7,68.0,29.71,SW,235,5.8,5.8,72,0.00,,---,0.00,VWS V14.01,2013-06-29 10:16:00,
2013-06-29 06:20:00,77.7,68.0,29.71,NE,44,4.0,4.0,72,0.00,,---,0.00,VWS V14.01,2013-06-29 10:20:00,
2013-06-29 06:21:00,77.7,68.0,29.71,NE,44,4.0,4.0,72,0.00,,---,0.00,VWS V14.01,2013-06-29 10:21:00,
2013-06-29 06:25:00,77.7,67.6,29.71,SW,216,8.1,8.1,71,0.00,,---,0.00,VWS V14.01,2013-06-29 10:25:00,
2013-06-29 06:26:00,77.7,67.6,29.71,SW,216,8.1,8.1,71,0.00,,---,0.00,VWS V14.01,2013-06-29 10:26:00,
2013-06-29 06:30:00,77.9,67.8,29.71,SSE,166,13.2,13.2,71,0.00,,---,0.00,VWS V14.01,2013-06-29 10:30:00,
2013-06-29 06:31:00,77.9,67.8,29.71,SSE,166,13.2,13.2,71,0.00,,---,0.00,VWS V14.01,2013-06-29 10:31:00,
2013-06-29 06:36:00,77.9,68.2,29.71,SSW,194,4.0,4.9,72,0.00,,---,0.00,VWS V14.01,2013-06-29 10:36:00,
2013-06-29 06:41:00,77.9,68.2,29.71,SSE,149,6.3,6.3,72,0.00,,---,0.00,VWS V14.01,2013-06-29 10:41:00,
2013-06-29 06:46:00,77.9,68.2,29.71,SSE,165,3.1,5.8,72,0.00,,---,0.00,VWS V14.01,2013-06-29 10:46:00,
2013-06-29 06:51:00,77.9,68.2,29.71,SW,224,3.6,7.6,72,0.00,,---,0.00,VWS V14.01,2013-06-29 10:51:00,
2013-06-29 06:52:00,77.9,68.2,29.71,North,353,3.1,3.6,72,0.00,,---,0.00,VWS V14.01,2013-06-29 10:52:00,
2013-06-29 06:56:00,77.7,68.4,29.71,NE,55,3.1,3.1,73,0.00,,---,0.00,VWS V14.01,2013-06-29 10:56:00,
2013-06-29 06:57:00,77.7,68.4,29.71,South,173,3.1,5.4,73,0.00,,---,0.00,VWS V14.01,2013-06-29 10:57:00,
2013-06-29 07:01:00,77.7,68.4,29.71,SE,142,3.6,5.8,73,0.00,,---,0.00,VWS V14.01,2013-06-29 11:01:00,
2013-06-29 07:02:00,77.7,68.4,29.71,SE,142,3.6,3.6,73,0.00,,---,0.00,VWS V14.01,2013-06-29 11:02:00,
2013-06-29 07:06:00,77.7,68.4,29.71,WSW,241,3.1,4.9,73,0.00,,---,0.00,VWS V14.01,2013-06-29 11:06:00,
2013-06-29 07:07:00,77.7,68.4,29.71,SSW,207,5.8,5.8,73,0.00,,---,0.00,VWS V14.01,2013-06-29 11:07:00,
2013-06-29 07:11:00,77.7,68.0,29.71,SE,137,2.7,2.7,72,0.00,,---,0.00,VWS V14.01,2013-06-29 11:11:00,
2013-06-29 07:12:00,77.7,68.0,29.71,SSE,164,4.0,4.0,72,0.00,,---,0.00,VWS V14.01,2013-06-29 11:12:00,
2013-06-29 07:16:00,77.9,68.2,29.71,South,190,3.6,3.6,72,0.00,,---,0.00,VWS V14.01,2013-06-29 11:16:00,
2013-06-29 07:17:00,77.9,68.2,29.71,SSW,208,6.3,6.3,72,0.00,,---,0.00,VWS V14.01,2013-06-29 11:17:00,
2013-06-29 07:21:00,77.9,68.2,29.71,SW,232,3.1,3.1,72,0.00,,---,0.00,VWS V14.01,2013-06-29 11:21:00,
2013-06-29 07:22:00,77.9,68.2,29.71,West,276,2.2,3.1,72,0.00,,---,0.00,VWS V14.01,2013-06-29 11:22:00,
2013-06-29 07:26:00,77.9,67.8,29.71,South,180,3.6,3.6,71,0.00,,---,0.00,VWS V14.01,2013-06-29 11:26:00,
2013-06-29 07:28:00,77.9,67.8,29.71,NE,49,4.0,4.0,71,0.00,,---,0.00,VWS V14.01,2013-06-29 11:28:00,
2013-06-29 07:31:00,77.9,67.8,29.71,SE,140,5.4,5.4,71,0.00,,---,0.00,VWS V14.01,2013-06-29 11:31:00,
2013-06-29 07:32:00,77.9,67.8,29.71,WSW,258,4.9,5.4,71,0.00,,---,0.00,VWS V14.01,2013-06-29 11:32:00,
2013-06-29 07:33:00,77.9,67.8,29.71,SE,142,4.0,5.4,71,0.00,,---,0.00,VWS V14.01,2013-06-29 11:33:00,
2013-06-29 07:36:00,77.9,68.2,29.71,WSW,238,2.7,4.9,72,0.00,,---,0.00,VWS V14.01,2013-06-29 11:36:00,
2013-06-29 07:38:00,77.9,68.2,29.71,SSE,160,4.0,4.0,72,0.00,,---,0.00,VWS V14.01,2013-06-29 11:38:00,
2013-06-29 07:41:00,78.1,68.3,29.71,SSE,157,4.9,4.9,72,0.00,,---,0.00,VWS V14.01,2013-06-29 11:41:00,
2013-06-29 07:42:00,78.1,68.3,29.71,SSE,157,4.9,4.9,72,0.00,,---,0.00,VWS V14.01,2013-06-29 11:42:00,
2013-06-29 07:43:00,78.3,68.5,29.71,SSW,202,2.7,4.9,72,0.00,,---,0.00,VWS V14.01,2013-06-29 11:43:00,
2013-06-29 07:46:00,78.3,68.5,29.71,SSE,163,2.7,2.7,72,0.00,,---,0.00,VWS V14.01,2013-06-29 11:46:00,
2013-06-29 07:47:00,78.3,68.5,29.71,SSE,163,2.7,2.7,72,0.00,,---,0.00,VWS V14.01,2013-06-29 11:47:00,
2013-06-29 07:48:00,78.3,68.5,29.71,SSE,163,2.7,2.7,72,0.00,,---,0.00,VWS V14.01,2013-06-29 11:48:00,
2013-06-29 07:51:00,78.4,68.3,29.71,WNW,287,3.6,3.6,71,0.00,,---,0.00,VWS V14.01,2013-06-29 11:51:00,
2013-06-29 07:52:00,78.4,68.3,29.71,WNW,287,3.6,3.6,71,0.00,,---,0.00,VWS V14.01,2013-06-29 11:52:00,
2013-06-29 07:53:00,78.4,68.3,29.71,SSE,157,2.7,3.6,71,0.00,,---,0.00,VWS V14.01,2013-06-29 11:53:00,
2013-06-29 07:56:00,78.6,68.4,29.71,ENE,62,2.2,4.0,71,0.00,,---,0.00,VWS V14.01,2013-06-29 11:56:00,
2013-06-29 07:57:00,78.6,68.4,29.71,SW,231,3.6,4.0,71,0.00,,---,0.00,VWS V14.01,2013-06-29 11:57:00,
2013-06-29 07:58:00,78.6,68.4,29.71,SSE,162,6.3,6.3,71,0.00,,---,0.00,VWS V14.01,2013-06-29 11:58:00,
2013-06-29 08:01:00,78.8,67.8,29.71,ESE,123,4.0,4.0,69,0.00,,---,0.00,VWS V14.01,2013-06-29 12:01:00,
2013-06-29 08:02:00,78.8,67.8,29.71,ESE,123,4.0,4.0,69,0.00,,---,0.00,VWS V14.01,2013-06-29 12:02:00,
2013-06-29 08:03:00,78.8,67.8,29.71,SSE,160,5.8,5.8,69,0.00,,---,0.00,VWS V14.01,2013-06-29 12:03:00,
2013-06-29 08:04:00,78.8,67.8,29.71,West,279,3.1,3.1,69,0.00,,---,0.00,VWS V14.01,2013-06-29 12:04:00,
2013-06-29 08:06:00,78.8,67.8,29.71,SSW,200,6.3,6.3,69,0.00,,---,0.00,VWS V14.01,2013-06-29 12:06:00,
2013-06-29 08:07:00,78.8,67.4,29.71,SSW,195,8.3,8.3,68,0.00,,---,0.00,VWS V14.01,2013-06-29 12:07:00,
2013-06-29 08:08:00,78.8,67.4,29.71,SSW,195,8.3,8.3,68,0.00,,---,0.00,VWS V14.01,2013-06-29 12:08:00,
2013-06-29 08:09:00,78.8,67.4,29.71,SE,132,4.0,4.0,68,0.00,,---,0.00,VWS V14.01,2013-06-29 12:09:00,
2013-06-29 08:11:00,79.0,67.5,29.71,NW,323,2.2,3.6,68,0.00,,---,0.00,VWS V14.01,2013-06-29 12:11:00,
2013-06-29 08:12:00,79.0,67.5,29.71,NW,323,2.2,3.6,68,0.00,,---,0.00,VWS V14.01,2013-06-29 12:12:00,
2013-06-29 08:13:00,79.0,67.5,29.71,SE,127,5.8,5.8,68,0.00,,---,0.00,VWS V14.01,2013-06-29 12:13:00,
2013-06-29 08:14:00,79.0,67.9,29.71,SE,127,5.8,5.8,69,0.00,,---,0.00,VWS V14.01,2013-06-29 12:14:00,
2013-06-29 08:17:00,79.2,67.7,29.71,SSW,194,2.7,3.6,68,0.00,,---,0.00,VWS V14.01,2013-06-29 12:17:00,
2013-06-29 08:18:00,79.2,68.1,29.71,SSW,197,6.3,6.3,69,0.00,,---,0.00,VWS V14.01,2013-06-29 12:18:00,
2013-06-29 08:19:00,79.2,68.1,29.71,SSW,194,3.6,6.3,69,0.00,,---,0.00,VWS V14.01,2013-06-29 12:19:00,
2013-06-29 08:22:00,79.3,67.4,29.71,SSE,156,3.6,3.6,67,0.00,,---,0.00,VWS V14.01,2013-06-29 12:22:00,
2013-06-29 08:23:00,79.3,67.0,29.71,SSE,164,7.6,7.6,66,0.00,,---,0.00,VWS V14.01,2013-06-29 12:23:00,
2013-06-29 08:24:00,79.3,67.0,29.71,SSW,194,4.9,4.9,66,0.00,,---,0.00,VWS V14.01,2013-06-29 12:24:00,
2013-06-29 08:27:00,79.5,66.7,29.71,SSW,198,3.6,3.6,65,0.00,,---,0.00,VWS V14.01,2013-06-29 12:27:00,
2013-06-29 08:28:00,79.7,66.9,29.71,SSW,198,3.6,3.6,65,0.00,,---,0.00,VWS V14.01,2013-06-29 12:28:00,
2013-06-29 08:29:00,79.7,66.5,29.71,SSW,198,3.6,3.6,64,0.00,,---,0.00,VWS V14.01,2013-06-29 12:29:00,
2013-06-29 08:32:00,79.9,66.2,29.71,SSW,198,5.4,6.3,63,0.00,,---,0.00,VWS V14.01,2013-06-29 12:32:00,
2013-06-29 08:33:00,79.9,66.2,29.71,SSW,207,4.0,4.0,63,0.00,,---,0.00,VWS V14.01,2013-06-29 12:33:00,
2013-06-29 08:34:00,79.9,66.2,29.71,SW,219,3.1,4.0,63,0.00,,---,0.00,VWS V14.01,2013-06-29 12:34:00,
2013-06-29 08:37:00,80.1,66.3,29.71,WSW,244,4.0,4.0,63,0.00,,---,0.00,VWS V14.01,2013-06-29 12:37:00,
2013-06-29 08:39:00,80.1,66.3,29.71,WSW,244,4.0,4.0,63,0.00,,---,0.00,VWS V14.01,2013-06-29 12:39:00,
2013-06-29 08:42:00,80.2,66.1,29.71,South,170,2.7,3.6,62,0.00,,---,0.00,VWS V14.01,2013-06-29 12:42:00,
2013-06-29 08:44:00,80.6,65.0,29.71,SSW,193,3.6,3.6,59,0.00,,---,0.00,VWS V14.01,2013-06-29 12:44:00,
2013-06-29 08:47:00,80.8,65.1,29.71,South,191,8.7,8.7,59,0.00,,---,0.00,VWS V14.01,2013-06-29 12:47:00,
2013-06-29 08:49:00,80.8,65.1,29.71,South,191,8.7,8.7,59,0.00,,---,0.00,VWS V14.01,2013-06-29 12:49:00,
2013-06-29 08:50:00,81.0,64.8,29.71,SSE,158,5.4,8.7,58,0.00,,---,0.00,VWS V14.01,2013-06-29 12:50:00,
2013-06-29 08:52:00,81.0,63.8,29.71,North,10,3.1,3.1,56,0.00,,---,0.00,VWS V14.01,2013-06-29 12:52:00,
2013-06-29 08:54:00,81.0,63.8,29.71,SSW,203,5.4,5.4,56,0.00,,---,0.00,VWS V14.01,2013-06-29 12:54:00,
2013-06-29 08:55:00,80.8,63.1,29.71,South,181,3.6,5.4,55,0.00,,---,0.00,VWS V14.01,2013-06-29 12:55:00,
2013-06-29 08:57:00,80.6,63.0,29.71,North,9,3.1,3.1,55,0.00,,---,0.00,VWS V14.01,2013-06-29 12:57:00,
2013-06-29 08:59:00,80.6,63.0,29.71,SSW,204,5.8,5.8,55,0.00,,---,0.00,VWS V14.01,2013-06-29 12:59:00,
2013-06-29 09:00:00,80.6,63.5,29.71,SSW,204,5.8,5.8,56,0.00,,---,0.00,VWS V14.01,2013-06-29 13:00:00,
2013-06-29 09:02:00,80.6,63.0,29.71,SSW,204,5.8,5.8,55,0.00,,---,0.00,VWS V14.01,2013-06-29 13:02:00,
2013-06-29 09:04:00,80.6,63.0,29.71,SSW,205,5.4,5.4,55,0.00,,---,0.00,VWS V14.01,2013-06-29 13:04:00,
2013-06-29 09:05:00,80.6,63.5,29.71,SSW,205,5.4,5.4,56,0.00,,---,0.00,VWS V14.01,2013-06-29 13:05:00,
2013-06-29 09:07:00,80.4,63.3,29.71,WNW,293,2.7,3.1,56,0.00,,---,0.00,VWS V14.01,2013-06-29 13:07:00,
2013-06-29 09:09:00,80.4,63.3,29.71,SSW,196,12.8,12.8,56,0.00,,---,0.00,VWS V14.01,2013-06-29 13:09:00,
2013-06-29 09:10:00,80.2,63.1,29.71,SE,140,4.9,7.2,56,0.00,,---,0.00,VWS V14.01,2013-06-29 13:10:00,
2013-06-29 09:12:00,80.2,63.1,29.71,SSW,196,3.6,4.0,56,0.00,,---,0.00,VWS V14.01,2013-06-29 13:12:00,
2013-06-29 09:13:00,80.2,63.1,29.71,SSW,196,3.6,4.0,56,0.00,,---,0.00,VWS V14.01,2013-06-29 13:13:00,
2013-06-29 09:14:00,80.1,63.0,29.71,SSW,196,3.6,3.6,56,0.00,,---,0.00,VWS V14.01,2013-06-29 13:14:00,
2013-06-29 09:15:00,80.1,63.5,29.71,SSW,198,5.8,5.8,57,0.00,,---,0.00,VWS V14.01,2013-06-29 13:15:00,
2013-06-29 09:17:00,80.1,63.5,29.71,SSW,201,4.5,8.7,57,0.00,,---,0.00,VWS V14.01,2013-06-29 13:17:00,
2013-06-29 09:18:00,80.1,63.5,29.71,SSW,201,4.5,8.7,57,0.00,,---,0.00,VWS V14.01,2013-06-29 13:18:00,
2013-06-29 09:19:00,79.9,63.8,29.71,SSE,167,5.4,5.8,58,0.00,,---,0.00,VWS V14.01,2013-06-29 13:19:00,
2013-06-29 09:20:00,79.9,63.8,29.71,SSE,161,10.5,10.5,58,0.00,,---,0.00,VWS V14.01,2013-06-29 13:20:00,
2013-06-29 09:22:00,79.7,64.1,29.71,WSW,240,2.7,2.7,59,0.00,,---,0.00,VWS V14.01,2013-06-29 13:22:00,
2013-06-29 09:23:00,79.7,64.1,29.71,SSE,166,5.8,5.8,59,0.00,,---,0.00,VWS V14.01,2013-06-29 13:23:00,
2013-06-29 09:24:00,79.5,64.0,29.71,SSE,166,5.8,5.8,59,0.00,,---,0.00,VWS V14.01,2013-06-29 13:24:00,
2013-06-29 09:25:00,79.5,64.0,29.71,SE,134,3.6,3.6,59,0.00,,---,0.00,VWS V14.01,2013-06-29 13:25:00,
2013-06-29 09:27:00,79.5,64.4,29.71,South,182,7.2,7.2,60,0.00,,---,0.00,VWS V14.01,2013-06-29 13:27:00,
2013-06-29 09:28:00,79.5,64.4,29.71,South,185,3.6,7.2,60,0.00,,---,0.00,VWS V14.01,2013-06-29 13:28:00,
2013-06-29 09:29:00,79.5,64.9,29.71,SSW,200,3.1,3.6,61,0.00,,---,0.00,VWS V14.01,2013-06-29 13:29:00,
2013-06-29 09:31:00,79.5,64.9,29.71,SE,128,4.0,10.5,61,0.00,,---,0.00,VWS V14.01,2013-06-29 13:31:00,
2013-06-29 09:33:00,79.5,65.4,29.71,SSW,192,4.9,5.8,62,0.00,,---,0.00,VWS V14.01,2013-06-29 13:33:00,
2013-06-29 09:34:00,79.5,65.4,29.71,ESE,121,0.0,10.1,62,0.00,,---,0.00,VWS V14.01,2013-06-29 13:34:00,
2013-06-29 09:36:00,79.5,65.4,29.74,SSW,193,3.1,3.1,62,0.00,,---,0.00,VWS V14.01,2013-06-29 13:36:00,
2013-06-29 09:38:00,79.5,65.4,29.74,South,188,6.3,6.3,62,0.00,,---,0.00,VWS V14.01,2013-06-29 13:38:00,
2013-06-29 09:40:00,79.5,65.4,29.74,South,188,6.3,6.3,62,0.00,,---,0.00,VWS V14.01,2013-06-29 13:40:00,
2013-06-29 09:41:00,79.5,64.9,29.74,South,188,6.3,6.3,61,0.00,,---,0.00,VWS V14.01,2013-06-29 13:41:00,
2013-06-29 09:43:00,79.5,64.9,29.74,ESE,121,2.7,2.7,61,0.00,,---,0.00,VWS V14.01,2013-06-29 13:43:00,
2013-06-29 09:45:00,79.5,64.9,29.74,South,180,5.8,5.8,61,0.00,,---,0.00,VWS V14.01,2013-06-29 13:45:00,
2013-06-29 09:46:00,79.7,64.6,29.74,South,175,3.6,3.6,60,0.00,,---,0.00,VWS V14.01,2013-06-29 13:46:00,
2013-06-29 09:48:00,79.7,64.6,29.74,SW,232,3.6,8.7,60,0.00,,---,0.00,VWS V14.01,2013-06-29 13:48:00,
2013-06-29 09:50:00,79.5,63.5,29.74,South,177,2.7,2.7,58,0.00,,---,0.00,VWS V14.01,2013-06-29 13:50:00,
2013-06-29 09:51:00,79.5,63.5,29.74,South,177,2.7,2.7,58,0.00,,---,0.00,VWS V14.01,2013-06-29 13:51:00,
2013-06-29 09:53:00,79.5,63.5,29.74,SSE,167,10.5,10.5,58,0.00,,---,0.00,VWS V14.01,2013-06-29 13:53:00,
2013-06-29 09:55:00,79.5,63.5,29.74,South,170,6.3,6.3,58,0.00,,---,0.00,VWS V14.01,2013-06-29 13:55:00,
2013-06-29 09:56:00,79.5,63.5,29.74,SSE,168,8.3,8.3,58,0.00,,---,0.00,VWS V14.01,2013-06-29 13:56:00,
2013-06-29 09:58:00,79.5,63.5,29.74,SSE,159,7.6,7.6,58,0.00,,---,0.00,VWS V14.01,2013-06-29 13:58:00,
2013-06-29 10:00:00,79.5,63.5,29.74,SSE,159,7.6,7.6,58,0.00,,---,0.00,VWS V14.01,2013-06-29 14:00:00,
2013-06-29 10:01:00,79.5,64.0,29.74,SSE,159,3.6,3.6,59,0.00,,---,0.00,VWS V14.01,2013-06-29 14:01:00,
2013-06-29 10:03:00,79.5,64.0,29.74,SE,136,5.8,5.8,59,0.00,,---,0.00,VWS V14.01,2013-06-29 14:03:00,
2013-06-29 10:05:00,79.5,64.0,29.74,SSW,208,6.3,6.3,59,0.00,,---,0.00,VWS V14.01,2013-06-29 14:05:00,
2013-06-29 10:06:00,79.5,64.0,29.74,West,262,3.1,3.1,59,0.00,,---,0.00,VWS V14.01,2013-06-29 14:06:00,
2013-06-29 10:08:00,79.5,64.0,29.74,SSE,163,3.1,3.1,59,0.00,,---,0.00,VWS V14.01,2013-06-29 14:08:00,
2013-06-29 10:10:00,79.5,64.0,29.74,South,182,15.0,15.0,59,0.00,,---,0.00,VWS V14.01,2013-06-29 14:10:00,
2013-06-29 10:11:00,79.5,64.0,29.74,WNW,287,6.3,15.0,59,0.00,,---,0.00,VWS V14.01,2013-06-29 14:11:00,
2013-06-29 10:13:00,79.5,64.0,29.74,South,173,5.4,5.4,59,0.00,,---,0.00,VWS V14.01,2013-06-29 14:13:00,
2013-06-29 10:15:00,79.3,63.8,29.74,SSE,162,5.8,5.8,59,0.00,,---,0.00,VWS V14.01,2013-06-29 14:15:00,
2013-06-29 10:16:00,79.3,63.8,29.74,SSE,165,5.8,5.8,59,0.00,,---,0.00,VWS V14.01,2013-06-29 14:16:00,
2013-06-29 10:18:00,79.3,63.8,29.74,SSW,192,6.3,6.3,59,0.00,,---,0.00,VWS V14.01,2013-06-29 14:18:00,
2013-06-29 10:20:00,79.3,64.3,29.71,ENE,60,0.0,0.0,60,0.00,,---,0.00,VWS V14.01,2013-06-29 14:20:00,
2013-06-29 10:21:00,79.3,64.3,29.71,ENE,60,0.0,0.0,60,0.00,,---,0.00,VWS V14.01,2013-06-29 14:21:00,
2013-06-29 10:23:00,79.3,64.7,29.71,South,170,4.0,4.0,61,0.00,,---,0.00,VWS V14.01,2013-06-29 14:23:00,
2013-06-29 10:25:00,79.5,65.4,29.71,WSW,237,7.6,7.6,62,0.00,,---,0.00,VWS V14.01,2013-06-29 14:25:00,
2013-06-29 10:26:00,79.5,65.4,29.71,WSW,237,7.6,7.6,62,0.00,,---,0.00,VWS V14.01,2013-06-29 14:26:00,
2013-06-29 10:28:00,79.9,65.7,29.71,ENE,58,2.7,2.7,62,0.00,,---,0.00,VWS V14.01,2013-06-29 14:28:00,
2013-06-29 10:29:00,79.9,65.7,29.71,SSW,195,10.5,10.5,62,0.00,,---,0.00,VWS V14.01,2013-06-29 14:29:00,
2013-06-29 10:30:00,79.9,65.7,29.71,SSE,164,3.6,10.5,62,0.00,,---,0.00,VWS V14.01,2013-06-29 14:30:00,
2013-06-29 10:31:00,80.2,66.1,29.71,SSE,164,3.6,3.6,62,0.00,,---,0.00,VWS V14.01,2013-06-29 14:31:00,
2013-06-29 10:33:00,80.2,66.1,29.71,SSE,167,2.7,3.1,62,0.00,,---,0.00,VWS V14.01,2013-06-29 14:33:00,
2013-06-29 10:34:00,80.2,66.1,29.71,SSE,167,2.7,3.1,62,0.00,,---,0.00,VWS V14.01,2013-06-29 14:34:00,
2013-06-29 10:35:00,80.6,65.4,29.71,NNW,341,6.3,6.3,60,0.00,,---,0.00,VWS V14.01,2013-06-29 14:35:00,
2013-06-29 10:36:00,80.6,65.4,29.71,NNW,341,6.3,6.3,60,0.00,,---,0.00,VWS V14.01,2013-06-29 14:36:00,
2013-06-29 10:38:00,80.6,65.4,29.71,SSE,168,3.6,3.6,60,0.00,,---,0.00,VWS V14.01,2013-06-29 14:38:00,
2013-06-29 10:39:00,80.6,65.4,29.71,SSE,168,3.6,3.6,60,0.00,,---,0.00,VWS V14.01,2013-06-29 14:39:00,
2013-06-29 10:41:00,80.6,65.4,29.71,WNW,295,3.6,3.6,60,0.00,,---,0.00,VWS V14.01,2013-06-29 14:41:00,
2013-06-29 10:43:00,80.6,65.4,29.71,SW,217,3.6,3.6,60,0.00,,---,0.00,VWS V14.01,2013-06-29 14:43:00,
2013-06-29 10:44:00,80.6,65.4,29.71,SW,217,3.6,3.6,60,0.00,,---,0.00,VWS V14.01,2013-06-29 14:44:00,
2013-06-29 10:46:00,81.1,62.4,29.71,SW,218,0.0,4.0,53,0.00,,---,0.00,VWS V14.01,2013-06-29 14:46:00,
2013-06-29 10:48:00,81.1,62.4,29.71,SW,229,3.1,3.1,53,0.00,,---,0.00,VWS V14.01,2013-06-29 14:48:00,
2013-06-29 10:49:00,81.1,62.4,29.71,ESE,118,5.4,5.4,53,0.00,,---,0.00,VWS V14.01,2013-06-29 14:49:00,
2013-06-29 10:51:00,81.3,60.9,29.71,SSE,149,5.8,5.8,50,0.00,,---,0.00,VWS V14.01,2013-06-29 14:51:00,
2013-06-29 10:52:00,81.3,60.9,29.71,SSE,149,5.8,5.8,50,0.00,,---,0.00,VWS V14.01,2013-06-29 14:52:00,
2013-06-29 10:53:00,81.5,61.1,29.71,South,175,8.3,8.3,50,0.00,,---,0.00,VWS V14.01,2013-06-29 14:53:00,
2013-06-29 10:54:00,81.5,61.1,29.71,South,191,2.7,2.7,50,0.00,,---,0.00,VWS V14.01,2013-06-29 14:54:00,
2013-06-29 10:56:00,81.5,59.9,29.71,SE,136,3.1,3.1,48,0.00,,---,0.00,VWS V14.01,2013-06-29 14:56:00,
2013-06-29 10:57:00,81.5,59.9,29.71,SE,136,3.1,3.1,48,0.00,,---,0.00,VWS V14.01,2013-06-29 14:57:00,
2013-06-29 10:58:00,81.5,59.9,29.71,SSW,206,4.0,4.0,48,0.00,,---,0.00,VWS V14.01,2013-06-29 14:58:00,
2013-06-29 10:59:00,81.5,59.9,29.71,SSW,206,4.0,4.0,48,0.00,,---,0.00,VWS V14.01,2013-06-29 14:59:00,
2013-06-29 11:01:00,81.5,59.9,29.71,SSW,203,0.0,4.0,48,0.00,,---,0.00,VWS V14.01,2013-06-29 15:01:00,
2013-06-29 11:02:00,81.1,60.2,29.71,SW,218,4.0,5.8,49,0.00,,---,0.00,VWS V14.01,2013-06-29 15:02:00,
2013-06-29 11:03:00,81.1,60.2,29.71,SE,133,2.7,2.7,49,0.00,,---,0.00,VWS V14.01,2013-06-29 15:03:00,
2013-06-29 11:04:00,81.1,60.2,29.71,SE,133,2.7,2.7,49,0.00,,---,0.00,VWS V14.01,2013-06-29 15:04:00,
2013-06-29 11:06:00,81.0,60.0,29.71,WNW,300,2.2,3.6,49,0.00,,---,0.00,VWS V14.01,2013-06-29 15:06:00,
2013-06-29 11:07:00,81.0,60.0,29.71,South,184,5.8,5.8,49,0.00,,---,0.00,VWS V14.01,2013-06-29 15:07:00,
2013-06-29 11:08:00,81.1,60.8,29.71,South,173,8.1,8.1,50,0.00,,---,0.00,VWS V14.01,2013-06-29 15:08:00,
2013-06-29 11:09:00,81.1,60.2,29.71,South,173,8.1,8.1,49,0.00,,---,0.00,VWS V14.01,2013-06-29 15:09:00,
2013-06-29 11:11:00,81.1,60.8,29.71,SSE,161,4.0,4.0,50,0.00,,---,0.00,VWS V14.01,2013-06-29 15:11:00,
2013-06-29 11:12:00,81.1,60.8,29.71,SSE,161,4.0,4.0,50,0.00,,---,0.00,VWS V14.01,2013-06-29 15:12:00,
2013-06-29 11:14:00,81.5,61.1,29.71,SSE,161,4.0,4.0,50,0.00,,---,0.00,VWS V14.01,2013-06-29 15:14:00,
2013-06-29 11:16:00,81.7,61.2,29.71,SW,216,4.0,4.0,50,0.00,,---,0.00,VWS V14.01,2013-06-29 15:16:00,
2013-06-29 11:17:00,81.7,61.2,29.71,SW,216,4.0,4.0,50,0.00,,---,0.00,VWS V14.01,2013-06-29 15:17:00,
2013-06-29 11:19:00,81.7,60.1,29.71,SSW,192,6.3,6.7,48,0.00,,---,0.00,VWS V14.01,2013-06-29 15:19:00,
2013-06-29 11:21:00,81.5,59.3,29.71,SSW,192,6.3,6.3,47,0.00,,---,0.00,VWS V14.01,2013-06-29 15:21:00,
2013-06-29 11:22:00,81.3,59.2,29.71,South,171,3.6,3.6,47,0.00,,---,0.00,VWS V14.01,2013-06-29 15:22:00,
2013-06-29 11:23:00,81.3,59.2,29.71,South,171,3.6,3.6,47,0.00,,---,0.00,VWS V14.01,2013-06-29 15:23:00,
2013-06-29 11:24:00,81.3,59.2,29.71,South,171,3.6,3.6,47,0.00,,---,0.00,VWS V14.01,2013-06-29 15:24:00,
2013-06-29 11:26:00,81.1,59.6,29.71,South,171,3.6,3.6,48,0.00,,---,0.00,VWS V14.01,2013-06-29 15:26:00,
2013-06-29 11:27:00,81.0,59.4,29.71,South,180,7.6,7.6,48,0.00,,---,0.00,VWS V14.01,2013-06-29 15:27:00,
2013-06-29 11:29:00,81.0,59.4,29.71,South,180,7.6,7.6,48,0.00,,---,0.00,VWS V14.01,2013-06-29 15:29:00,
2013-06-29 11:31:00,81.0,59.4,29.71,South,177,4.9,4.9,48,0.00,,---,0.00,VWS V14.01,2013-06-29 15:31:00,
2013-06-29 11:32:00,80.8,59.9,29.71,South,177,4.9,4.9,49,0.00,,---,0.00,VWS V14.01,2013-06-29 15:32:00,
2013-06-29 11:34:00,80.8,59.9,29.71,SW,220,8.1,8.1,49,0.00,,---,0.00,VWS V14.01,2013-06-29 15:34:00,
2013-06-29 11:35:00,80.8,59.9,29.71,South,169,4.0,8.1,49,0.00,,---,0.00,VWS V14.01,2013-06-29 15:35:00,
2013-06-29 11:36:00,80.6,59.7,29.71,South,169,4.0,4.0,49,0.00,,---,0.00,VWS V14.01,2013-06-29 15:36:00,
2013-06-29 11:37:00,80.6,59.7,29.71,SW,226,4.0,5.4,49,0.00,,---,0.00,VWS V14.01,2013-06-29 15:37:00,
2013-06-29 11:39:00,80.8,60.4,29.71,ENE,75,2.7,4.0,50,0.00,,---,0.00,VWS V14.01,2013-06-29 15:39:00,
2013-06-29 11:40:00,80.8,60.4,29.71,ENE,75,2.7,4.0,50,0.00,,---,0.00,VWS V14.01,2013-06-29 15:40:00,
2013-06-29 11:41:00,80.8,59.9,29.71,SSE,159,3.1,3.6,49,0.00,,---,0.00,VWS V14.01,2013-06-29 15:41:00,
2013-06-29 11:42:00,80.8,59.9,29.71,SSE,159,3.1,3.1,49,0.00,,---,0.00,VWS V14.01,2013-06-29 15:42:00,
2013-06-29 11:44:00,80.8,59.9,29.71,SSE,167,3.1,3.1,49,0.00,,---,0.00,VWS V14.01,2013-06-29 15:44:00,
2013-06-29 11:45:00,80.8,59.9,29.71,South,182,3.1,3.1,49,0.00,,---,0.00,VWS V14.01,2013-06-29 15:45:00,
2013-06-29 11:47:00,80.8,59.9,29.71,South,184,4.0,4.0,49,0.00,,---,0.00,VWS V14.01,2013-06-29 15:47:00,
2013-06-29 11:49:00,80.6,59.7,29.71,South,181,5.4,5.4,49,0.00,,---,0.00,VWS V14.01,2013-06-29 15:49:00,
2013-06-29 11:50:00,80.6,59.7,29.71,South,181,5.4,5.4,49,0.00,,---,0.00,VWS V14.01,2013-06-29 15:50:00,
2013-06-29 11:52:00,80.4,60.1,29.71,WNW,289,2.7,2.7,50,0.00,,---,0.00,VWS V14.01,2013-06-29 15:52:00,
2013-06-29 11:53:00,80.2,59.9,29.71,WNW,289,2.7,2.7,50,0.00,,---,0.00,VWS V14.01,2013-06-29 15:53:00,
2013-06-29 11:54:00,80.2,59.9,29.71,South,176,6.3,6.3,50,0.00,,---,0.00,VWS V14.01,2013-06-29 15:54:00,
2013-06-29 11:55:00,80.2,59.9,29.71,SSW,213,3.6,6.3,50,0.00,,---,0.00,VWS V14.01,2013-06-29 15:55:00,
2013-06-29 11:57:00,80.2,59.9,29.74,South,186,3.6,3.6,50,0.00,,---,0.00,VWS V14.01,2013-06-29 15:57:00,
2013-06-29 11:58:00,80.2,59.9,29.74,SSE,165,7.2,7.2,50,0.00,,---,0.00,VWS V14.01,2013-06-29 15:58:00,
2013-06-29 11:59:00,80.1,60.3,29.74,SSE,165,7.2,7.2,51,0.00,,---,0.00,VWS V14.01,2013-06-29 15:59:00,
2013-06-29 12:00:00,80.1,60.3,29.74,WSW,244,0.0,0.0,51,0.00,,---,0.00,VWS V14.01,2013-06-29 16:00:00,
2013-06-29 12:02:00,79.9,60.2,29.74,South,191,6.3,6.3,51,0.00,,---,0.00,VWS V14.01,2013-06-29 16:02:00,
2013-06-29 12:03:00,79.9,60.2,29.74,South,191,6.3,6.3,51,0.00,,---,0.00,VWS V14.01,2013-06-29 16:03:00,
2013-06-29 12:04:00,79.9,60.2,29.74,South,191,6.3,6.3,51,0.00,,---,0.00,VWS V14.01,2013-06-29 16:04:00,
2013-06-29 12:05:00,79.9,61.2,29.74,South,191,6.3,6.3,53,0.00,,---,0.00,VWS V14.01,2013-06-29 16:05:00,
2013-06-29 12:07:00,79.9,61.2,29.74,South,173,6.3,6.3,53,0.00,,---,0.00,VWS V14.01,2013-06-29 16:07:00,
2013-06-29 12:08:00,79.9,61.2,29.74,South,173,6.3,6.3,53,0.00,,---,0.00,VWS V14.01,2013-06-29 16:08:00,
2013-06-29 12:09:00,79.9,61.2,29.74,South,187,7.2,7.2,53,0.00,,---,0.00,VWS V14.01,2013-06-29 16:09:00,
2013-06-29 12:10:00,79.9,61.2,29.74,SSW,206,3.6,3.6,53,0.00,,---,0.00,VWS V14.01,2013-06-29 16:10:00,
2013-06-29 12:12:00,79.5,62.0,29.74,SSE,160,8.3,9.2,55,0.00,,---,0.00,VWS V14.01,2013-06-29 16:12:00,
2013-06-29 12:13:00,79.5,62.0,29.74,SSW,213,2.7,8.3,55,0.00,,---,0.00,VWS V14.01,2013-06-29 16:13:00,
2013-06-29 12:14:00,79.3,62.3,29.74,WSW,258,6.3,8.1,56,0.00,,---,0.00,VWS V14.01,2013-06-29 16:14:00,
2013-06-29 12:15:00,79.3,62.3,29.74,WSW,258,6.3,6.3,56,0.00,,---,0.00,VWS V14.01,2013-06-29 16:15:00,
2013-06-29 12:17:00,79.3,62.3,29.74,SW,216,5.8,6.3,56,0.00,,---,0.00,VWS V14.01,2013-06-29 16:17:00,
2013-06-29 12:18:00,79.3,62.3,29.74,SSE,147,2.7,2.7,56,0.00,,---,0.00,VWS V14.01,2013-06-29 16:18:00,
2013-06-29 12:19:00,79.3,62.3,29.74,SSW,199,3.1,3.1,56,0.00,,---,0.00,VWS V14.01,2013-06-29 16:19:00,
2013-06-29 12:20:00,79.3,62.3,29.74,South,188,7.6,7.6,56,0.00,,---,0.00,VWS V14.01,2013-06-29 16:20:00,
2013-06-29 12:22:00,79.3,62.8,29.74,SSE,168,3.6,3.6,57,0.00,,---,0.00,VWS V14.01,2013-06-29 16:22:00,
2013-06-29 12:23:00,79.2,63.1,29.74,SSE,168,3.6,3.6,58,0.00,,---,0.00,VWS V14.01,2013-06-29 16:23:00,
2013-06-29 12:24:00,79.2,63.6,29.74,South,178,3.1,3.1,59,0.00,,---,0.00,VWS V14.01,2013-06-29 16:24:00,
2013-06-29 12:25:00,79.2,63.6,29.74,South,178,3.1,3.1,59,0.00,,---,0.00,VWS V14.01,2013-06-29 16:25:00,
2013-06-29 12:27:00,79.2,63.6,29.74,SSE,151,2.7,3.1,59,0.00,,---,0.00,VWS V14.01,2013-06-29 16:27:00,
2013-06-29 12:28:00,79.0,63.9,29.74,NW,321,0.0,0.0,60,0.00,,---,0.00,VWS V14.01,2013-06-29 16:28:00,
2013-06-29 12:29:00,79.0,63.9,29.74,NW,321,0.0,0.0,60,0.00,,---,0.00,VWS V14.01,2013-06-29 16:29:00,
2013-06-29 12:30:00,79.0,63.9,29.74,ENE,64,3.6,3.6,60,0.00,,---,0.00,VWS V14.01,2013-06-29 16:30:00,
2013-06-29 12:31:00,78.8,64.2,29.74,WNW,284,3.1,3.6,61,0.00,,---,0.00,VWS V14.01,2013-06-29 16:31:00,
2013-06-29 12:32:00,78.8,64.2,29.74,SSW,196,0.0,0.0,61,0.00,,---,0.00,VWS V14.01,2013-06-29 16:32:00,
2013-06-29 12:33:00,78.8,64.2,29.74,SSW,196,0.0,0.0,61,0.00,,---,0.00,VWS V14.01,2013-06-29 16:33:00,
2013-06-29 12:34:00,78.6,64.5,29.74,NW,306,4.0,4.0,62,0.00,,---,0.00,VWS V14.01,2013-06-29 16:34:00,
2013-06-29 12:36:00,78.6,64.5,29.74,NW,306,4.0,4.0,62,0.00,,---,0.00,VWS V14.01,2013-06-29 16:36:00,
2013-06-29 12:37:00,78.3,64.2,29.74,South,185,3.6,3.6,62,0.00,,---,0.00,VWS V14.01,2013-06-29 16:37:00,
2013-06-29 12:38:00,78.3,64.6,29.74,SSE,149,4.9,6.3,63,0.00,,---,0.00,VWS V14.01,2013-06-29 16:38:00,
2013-06-29 12:40:00,78.3,64.6,29.74,South,169,5.4,5.4,63,0.00,,---,0.00,VWS V14.01,2013-06-29 16:40:00,
2013-06-29 12:41:00,78.3,64.6,29.74,SSE,150,4.0,5.4,63,0.00,,---,0.00,VWS V14.01,2013-06-29 16:41:00,
2013-06-29 12:42:00,78.1,65.4,29.74,SSE,150,4.0,4.0,65,0.00,,---,0.00,VWS V14.01,2013-06-29 16:42:00,
2013-06-29 12:43:00,78.1,65.4,29.74,SE,140,2.2,2.7,65,0.00,,---,0.00,VWS V14.01,2013-06-29 16:43:00,
2013-06-29 12:45:00,78.1,65.4,29.74,SE,128,2.7,2.7,65,0.00,,---,0.00,VWS V14.01,2013-06-29 16:45:00,
2013-06-29 12:46:00,77.9,66.1,29.74,SE,128,2.7,2.7,67,0.00,,---,0.00,VWS V14.01,2013-06-29 16:46:00,
2013-06-29 12:47:00,77.9,66.1,29.74,SSW,204,5.8,5.8,67,0.00,,---,0.00,VWS V14.01,2013-06-29 16:47:00,
2013-06-29 12:48:00,77.9,66.1,29.74,SSW,204,5.8,5.8,67,0.00,,---,0.00,VWS V14.01,2013-06-29 16:48:00,
2013-06-29 12:50:00,77.7,66.3,29.74,SSW,192,2.2,2.2,68,0.00,,---,0.00,VWS V14.01,2013-06-29 16:50:00,
2013-06-29 12:51:00,77.7,66.3,29.74,SSW,192,2.2,2.2,68,0.00,,---,0.00,VWS V14.01,2013-06-29 16:51:00,
2013-06-29 12:52:00,77.9,66.9,29.74,West,271,4.0,4.0,69,0.00,,---,0.00,VWS V14.01,2013-06-29 16:52:00,
2013-06-29 12:53:00,77.9,66.9,29.74,SE,139,4.0,5.4,69,0.00,,---,0.00,VWS V14.01,2013-06-29 16:53:00,
2013-06-29 12:55:00,77.9,66.9,29.74,SSW,213,3.1,3.1,69,0.00,,---,0.00,VWS V14.01,2013-06-29 16:55:00,
2013-06-29 12:56:00,77.9,66.9,29.74,SSW,213,3.1,3.1,69,0.00,,---,0.00,VWS V14.01,2013-06-29 16:56:00,
2013-06-29 12:57:00,77.7,67.2,29.74,SSE,156,3.1,3.1,70,0.00,,---,0.00,VWS V14.01,2013-06-29 16:57:00,
2013-06-29 12:58:00,77.7,67.2,29.74,South,191,3.6,5.8,70,0.00,,---,0.00,VWS V14.01,2013-06-29 16:58:00,
2013-06-29 13:00:00,77.9,67.8,29.74,South,191,3.6,3.6,71,0.00,,---,0.00,VWS V14.01,2013-06-29 17:00:00,
2013-06-29 13:01:00,77.9,68.2,29.74,South,169,3.6,3.6,72,0.00,,---,0.00,VWS V14.01,2013-06-29 17:01:00,
2013-06-29 13:02:00,77.9,68.2,29.74,South,169,3.6,3.6,72,0.00,,---,0.00,VWS V14.01,2013-06-29 17:02:00,
2013-06-29 13:03:00,77.9,68.2,29.74,SSE,151,3.6,3.6,72,0.00,,---,0.00,VWS V14.01,2013-06-29 17:03:00,
2013-06-29 13:05:00,77.9,68.2,29.74,SSW,200,0.0,4.0,72,0.00,,---,0.00,VWS V14.01,2013-06-29 17:05:00,
2013-06-29 13:06:00,77.9,68.2,29.74,SSW,200,0.0,0.0,72,0.00,,---,0.00,VWS V14.01,2013-06-29 17:06:00,
2013-06-29 13:07:00,78.1,68.3,29.74,SSW,193,0.0,0.0,72,0.00,,---,0.00,VWS V14.01,2013-06-29 17:07:00,
2013-06-29 13:08:00,78.1,68.3,29.74,South,190,2.7,2.7,72,0.00,,---,0.00,VWS V14.01,2013-06-29 17:08:00,
2013-06-29 13:10:00,78.1,68.7,29.74,SSE,151,5.8,5.8,73,0.00,,---,0.00,VWS V14.01,2013-06-29 17:10:00,
2013-06-29 13:11:00,78.1,68.7,29.74,SSE,151,5.8,5.8,73,0.00,,---,0.00,VWS V14.01,2013-06-29 17:11:00,
2013-06-29 13:12:00,78.1,68.7,29.74,SW,219,3.1,5.8,73,0.00,,---,0.00,VWS V14.01,2013-06-29 17:12:00,
2013-06-29 13:13:00,78.1,68.7,29.74,SW,219,3.1,3.1,73,0.00,,---,0.00,VWS V14.01,2013-06-29 17:13:00,
2013-06-29 13:15:00,78.1,68.7,29.74,SSE,156,3.1,3.1,73,0.00,,---,0.00,VWS V14.01,2013-06-29 17:15:00,
2013-06-29 13:16:00,78.3,68.9,29.74,SSE,156,3.1,3.1,73,0.00,,---,0.00,VWS V14.01,2013-06-29 17:16:00,
2013-06-29 13:17:00,78.3,68.9,29.74,SSE,156,3.1,3.1,73,0.00,,---,0.00,VWS V14.01,2013-06-29 17:17:00,
2013-06-29 13:18:00,78.3,68.9,29.74,South,176,5.8,5.8,73,0.00,,---,0.00,VWS V14.01,2013-06-29 17:18:00,
2013-06-29 13:21:00,78.3,68.5,29.74,SSE,157,8.1,8.1,72,0.00,,---,0.00,VWS V14.01,2013-06-29 17:21:00,
2013-06-29 13:22:00,78.3,68.5,29.74,SSW,195,4.0,8.1,72,0.00,,---,0.00,VWS V14.01,2013-06-29 17:22:00,
2013-06-29 13:24:00,78.3,68.5,29.74,ESE,109,7.6,7.6,72,0.00,,---,0.00,VWS V14.01,2013-06-29 17:24:00,
2013-06-29 13:26:00,78.4,68.7,29.74,SW,215,4.0,4.0,72,0.00,,---,0.00,VWS V14.01,2013-06-29 17:26:00,
2013-06-29 13:27:00,78.4,68.7,29.74,South,184,9.6,9.6,72,0.00,,---,0.00,VWS V14.01,2013-06-29 17:27:00,
2013-06-29 13:29:00,78.6,68.8,29.74,South,170,5.8,5.8,72,0.00,,---,0.00,VWS V14.01,2013-06-29 17:29:00,
2013-06-29 13:31:00,78.6,68.0,29.74,South,185,8.3,8.3,70,0.00,,---,0.00,VWS V14.01,2013-06-29 17:31:00,
2013-06-29 13:32:00,78.6,68.0,29.74,SW,219,2.7,2.7,70,0.00,,---,0.00,VWS V14.01,2013-06-29 17:32:00,
2013-06-29 13:34:00,78.8,67.8,29.74,SSW,199,8.7,8.7,69,0.00,,---,0.00,VWS V14.01,2013-06-29 17:34:00,
2013-06-29 13:36:00,78.8,67.4,29.74,SSW,199,8.7,8.7,68,0.00,,---,0.00,VWS V14.01,2013-06-29 17:36:00,
2013-06-29 13:37:00,78.8,67.4,29.74,SSW,199,8.7,8.7,68,0.00,,---,0.00,VWS V14.01,2013-06-29 17:37:00,
2013-06-29 13:39:00,78.6,66.8,29.74,South,185,5.4,5.4,67,0.00,,---,0.00,VWS V14.01,2013-06-29 17:39:00,
2013-06-29 13:41:00,78.6,66.3,29.74,South,191,5.4,5.4,66,0.00,,---,0.00,VWS V14.01,2013-06-29 17:41:00,
2013-06-29 13:42:00,78.6,66.3,29.74,South,191,5.4,5.4,66,0.00,,---,0.00,VWS V14.01,2013-06-29 17:42:00,
2013-06-29 13:44:00,78.6,65.9,29.74,SSE,162,8.1,8.1,65,0.00,,---,0.00,VWS V14.01,2013-06-29 17:44:00,
2013-06-29 13:46:00,78.6,65.9,29.74,South,186,3.1,3.1,65,0.00,,---,0.00,VWS V14.01,2013-06-29 17:46:00,
2013-06-29 13:47:00,78.6,65.9,29.74,SSE,149,3.6,3.6,65,0.00,,---,0.00,VWS V14.01,2013-06-29 17:47:00,
2013-06-29 13:49:00,78.3,65.5,29.74,SSE,147,8.3,8.3,65,0.00,,---,0.00,VWS V14.01,2013-06-29 17:49:00,
2013-06-29 13:51:00,78.3,65.1,29.74,SSE,161,5.8,5.8,64,0.00,,---,0.00,VWS V14.01,2013-06-29 17:51:00,
2013-06-29 13:52:00,78.3,65.1,29.74,SSE,161,5.8,5.8,64,0.00,,---,0.00,VWS V14.01,2013-06-29 17:52:00,
2013-06-29 13:54:00,77.9,65.2,29.74,SSW,194,3.1,3.1,65,0.00,,---,0.00,VWS V14.01,2013-06-29 17:54:00,
2013-06-29 13:56:00,77.9,65.6,29.74,South,180,4.9,4.9,66,0.00,,---,0.00,VWS V14.01,2013-06-29 17:56:00,
2013-06-29 13:57:00,77.9,65.6,29.74,South,180,4.9,4.9,66,0.00,,---,0.00,VWS V14.01,2013-06-29 17:57:00,
2013-06-29 13:58:00,77.9,65.6,29.74,South,177,3.6,4.9,66,0.00,,---,0.00,VWS V14.01,2013-06-29 17:58:00,
2013-06-29 13:59:00,77.7,65.9,29.74,SW,233,3.1,3.1,67,0.00,,---,0.00,VWS V14.01,2013-06-29 17:59:00,
2013-06-29 14:01:00,77.7,65.9,29.74,SSE,160,3.6,3.6,67,0.00,,---,0.00,VWS V14.01,2013-06-29 18:01:00,
2013-06-29 14:02:00,77.7,65.9,29.74,South,173,3.6,3.6,67,0.00,,---,0.00,VWS V14.01,2013-06-29 18:02:00,
2013-06-29 14:03:00,77.7,65.9,29.74,South,173,3.6,3.6,67,0.00,,---,0.00,VWS V14.01,2013-06-29 18:03:00,
2013-06-29 14:04:00,77.7,65.9,29.74,SSW,205,5.8,5.8,67,0.00,,---,0.00,VWS V14.01,2013-06-29 18:04:00,
2013-06-29 14:06:00,77.7,65.9,29.74,South,173,3.1,3.1,67,0.00,,---,0.00,VWS V14.01,2013-06-29 18:06:00,
2013-06-29 14:07:00,77.7,66.3,29.74,South,172,2.7,3.1,68,0.00,,---,0.00,VWS V14.01,2013-06-29 18:07:00,
2013-06-29 14:08:00,77.7,66.3,29.74,South,170,3.6,3.6,68,0.00,,---,0.00,VWS V14.01,2013-06-29 18:08:00,
2013-06-29 14:09:00,77.7,66.3,29.74,South,185,4.9,4.9,68,0.00,,---,0.00,VWS V14.01,2013-06-29 18:09:00,
2013-06-29 14:11:00,77.7,66.8,29.74,SSE,168,5.8,5.8,69,0.00,,---,0.00,VWS V14.01,2013-06-29 18:11:00,
2013-06-29 14:12:00,77.7,66.8,29.74,SSE,168,5.8,5.8,69,0.00,,---,0.00,VWS V14.01,2013-06-29 18:12:00,
2013-06-29 14:13:00,77.7,66.8,29.74,ESE,123,5.4,5.8,69,0.00,,---,0.00,VWS V14.01,2013-06-29 18:13:00,
2013-06-29 14:14:00,77.7,66.3,29.74,SSW,193,3.1,3.6,68,0.00,,---,0.00,VWS V14.01,2013-06-29 18:14:00,
2013-06-29 14:16:00,77.7,66.3,29.74,SSE,156,2.7,2.7,68,0.00,,---,0.00,VWS V14.01,2013-06-29 18:16:00,
2013-06-29 14:17:00,77.7,66.3,29.74,SW,225,4.9,4.9,68,0.00,,---,0.00,VWS V14.01,2013-06-29 18:17:00,
2013-06-29 14:18:00,77.7,66.3,29.74,SSE,148,5.8,5.8,68,0.00,,---,0.00,VWS V14.01,2013-06-29 18:18:00,
2013-06-29 14:20:00,77.9,66.5,29.74,SSW,199,3.1,4.0,68,0.00,,---,0.00,VWS V14.01,2013-06-29 18:20:00,
2013-06-29 14:22:00,78.1,67.1,29.74,WSW,256,3.6,3.6,69,0.00,,---,0.00,VWS V14.01,2013-06-29 18:22:00,
2013-06-29 14:23:00,78.1,66.7,29.74,SE,138,6.7,6.7,68,0.00,,---,0.00,VWS V14.01,2013-06-29 18:23:00,
2013-06-29 14:25:00,78.1,66.7,29.74,SSW,196,3.6,3.6,68,0.00,,---,0.00,VWS V14.01,2013-06-29 18:25:00,
2013-06-29 14:27:00,78.3,66.0,29.74,South,178,6.3,6.3,66,0.00,,---,0.00,VWS V14.01,2013-06-29 18:27:00,
2013-06-29 14:28:00,78.3,65.5,29.74,SSW,205,8.1,8.1,65,0.00,,---,0.00,VWS V14.01,2013-06-29 18:28:00,
2013-06-29 14:30:00,78.6,65.9,29.74,ESE,120,5.8,5.8,65,0.00,,---,0.00,VWS V14.01,2013-06-29 18:30:00,
2013-06-29 14:32:00,78.8,65.6,29.74,South,170,5.8,7.6,64,0.00,,---,0.00,VWS V14.01,2013-06-29 18:32:00,
2013-06-29 14:33:00,79.0,65.8,29.74,SE,133,8.3,8.3,64,0.00,,---,0.00,VWS V14.01,2013-06-29 18:33:00,
2013-06-29 14:35:00,79.3,66.1,29.74,West,271,2.2,4.5,64,0.00,,---,0.00,VWS V14.01,2013-06-29 18:35:00,
2013-06-29 14:37:00,79.7,66.0,29.74,SSW,202,0.0,0.0,63,0.00,,---,0.00,VWS V14.01,2013-06-29 18:37:00,
2013-06-29 14:38:00,79.7,66.0,29.74,SSW,193,0.0,0.0,63,0.00,,---,0.00,VWS V14.01,2013-06-29 18:38:00,
2013-06-29 14:40:00,79.7,65.5,29.74,West,268,4.9,7.6,62,0.00,,---,0.00,VWS V14.01,2013-06-29 18:40:00,
2013-06-29 14:42:00,79.9,64.3,29.74,South,185,3.1,3.1,59,0.00,,---,0.00,VWS V14.01,2013-06-29 18:42:00,
2013-06-29 14:43:00,79.9,64.3,29.74,SE,134,3.6,4.0,59,0.00,,---,0.00,VWS V14.01,2013-06-29 18:43:00,
2013-06-29 14:45:00,80.1,63.5,29.74,South,189,3.6,5.8,57,0.00,,---,0.00,VWS V14.01,2013-06-29 18:45:00,
2013-06-29 14:47:00,80.2,64.1,29.74,SE,141,6.3,6.3,58,0.00,,---,0.00,VWS V14.01,2013-06-29 18:47:00,
2013-06-29 14:48:00,80.4,64.3,29.74,SSE,155,8.1,8.1,58,0.00,,---,0.00,VWS V14.01,2013-06-29 18:48:00,
2013-06-29 14:51:00,80.8,64.1,29.74,South,190,6.3,6.3,57,0.00,,---,0.00,VWS V14.01,2013-06-29 18:51:00,
2013-06-29 14:52:00,80.8,63.6,29.74,South,190,6.3,6.3,56,0.00,,---,0.00,VWS V14.01,2013-06-29 18:52:00,
2013-06-29 14:53:00,81.0,63.8,29.74,SE,126,0.0,2.7,56,0.00,,---,0.00,VWS V14.01,2013-06-29 18:53:00,
2013-06-29 14:54:00,81.0,63.8,29.74,SSW,195,2.7,2.7,56,0.00,,---,0.00,VWS V14.01,2013-06-29 18:54:00,
2013-06-29 14:56:00,81.0,62.8,29.74,South,172,4.0,4.0,54,0.00,,---,0.00,VWS V14.01,2013-06-29 18:56:00,
2013-06-29 14:57:00,81.1,62.4,29.74,SSE,161,6.3,6.3,53,0.00,,---,0.00,VWS V14.01,2013-06-29 18:57:00,
2013-06-29 14:58:00,81.1,62.4,29.74,WSW,240,4.0,4.0,53,0.00,,---,0.00,VWS V14.01,2013-06-29 18:58:00,
2013-06-29 14:59:00,81.1,62.4,29.74,WSW,240,4.0,4.0,53,0.00,,---,0.00,VWS V14.01,2013-06-29 18:59:00,
2013-06-29 15:01:00,81.1,62.4,29.74,SSE,159,4.0,4.0,53,0.00,,---,0.00,VWS V14.01,2013-06-29 19:01:00,
2013-06-29 15:02:00,81.1,61.9,29.74,SSE,159,4.0,4.0,52,0.00,,---,0.00,VWS V14.01,2013-06-29 19:02:00,
2013-06-29 15:03:00,81.1,61.9,29.74,SSE,167,6.7,6.7,52,0.00,,---,0.00,VWS V14.01,2013-06-29 19:03:00,
2013-06-29 15:04:00,81.3,62.0,29.74,SSE,167,6.7,6.7,52,0.00,,---,0.00,VWS V14.01,2013-06-29 19:04:00,
2013-06-29 15:06:00,81.3,62.0,29.74,South,177,0.0,0.0,52,0.00,,---,0.00,VWS V14.01,2013-06-29 19:06:00,
2013-06-29 15:07:00,81.3,62.6,29.74,SE,136,4.0,4.0,53,0.00,,---,0.00,VWS V14.01,2013-06-29 19:07:00,
2013-06-29 15:08:00,81.3,62.6,29.74,South,169,2.2,2.7,53,0.00,,---,0.00,VWS V14.01,2013-06-29 19:08:00,
2013-06-29 15:09:00,81.3,62.6,29.74,SE,133,6.3,6.3,53,0.00,,---,0.00,VWS V14.01,2013-06-29 19:09:00,
2013-06-29 15:11:00,81.9,63.6,29.74,SSE,166,8.7,12.8,54,0.00,,---,0.00,VWS V14.01,2013-06-29 19:11:00,
2013-06-29 15:13:00,82.0,62.7,29.74,South,180,7.2,13.2,52,0.00,,---,0.00,VWS V14.01,2013-06-29 19:13:00,
2013-06-29 15:14:00,82.0,62.7,29.74,South,169,5.4,10.5,52,0.00,,---,0.00,VWS V14.01,2013-06-29 19:14:00,
2013-06-29 15:16:00,82.4,62.5,29.74,East,101,4.5,7.6,51,0.00,,---,0.00,VWS V14.01,2013-06-29 19:16:00,
2013-06-29 15:18:00,82.4,62.5,29.74,SSE,167,8.7,9.6,51,0.00,,---,0.00,VWS V14.01,2013-06-29 19:18:00,
2013-06-29 15:19:00,82.4,62.5,29.74,SSE,157,8.3,8.7,51,0.00,,---,0.00,VWS V14.01,2013-06-29 19:19:00,
2013-06-29 15:21:00,82.4,61.9,29.74,South,173,11.0,11.0,50,0.00,,---,0.00,VWS V14.01,2013-06-29 19:21:00,
2013-06-29 15:23:00,82.4,61.3,29.74,South,173,11.0,11.0,49,0.00,,---,0.00,VWS V14.01,2013-06-29 19:23:00,
2013-06-29 15:24:00,82.4,61.3,29.74,SSE,161,8.3,11.0,49,0.00,,---,0.00,VWS V14.01,2013-06-29 19:24:00,
2013-06-29 15:26:00,82.2,61.2,29.74,SSW,202,5.4,5.8,49,0.00,,---,0.00,VWS V14.01,2013-06-29 19:26:00,
2013-06-29 15:28:00,82.0,61.0,29.74,South,171,10.1,10.1,49,0.00,,---,0.00,VWS V14.01,2013-06-29 19:28:00,
2013-06-29 15:29:00,82.0,61.0,29.74,ESE,105,7.6,10.1,49,0.00,,---,0.00,VWS V14.01,2013-06-29 19:29:00,
2013-06-29 15:31:00,81.9,60.3,29.74,SSE,159,7.2,7.2,48,0.00,,---,0.00,VWS V14.01,2013-06-29 19:31:00,
2013-06-29 15:33:00,81.9,60.3,29.74,SE,127,2.2,3.6,48,0.00,,---,0.00,VWS V14.01,2013-06-29 19:33:00,
2013-06-29 15:34:00,81.7,60.1,29.74,SSE,151,4.0,4.0,48,0.00,,---,0.00,VWS V14.01,2013-06-29 19:34:00,
2013-06-29 15:36:00,81.7,61.2,29.74,SSE,153,11.0,11.0,50,0.00,,---,0.00,VWS V14.01,2013-06-29 19:36:00,
2013-06-29 15:38:00,81.5,61.1,29.74,SW,224,3.6,3.6,50,0.00,,---,0.00,VWS V14.01,2013-06-29 19:38:00,
2013-06-29 15:39:00,81.5,61.1,29.74,SSW,207,8.7,8.7,50,0.00,,---,0.00,VWS V14.01,2013-06-29 19:39:00,
2013-06-29 15:41:00,81.5,61.1,29.74,NW,311,5.4,5.4,50,0.00,,---,0.00,VWS V14.01,2013-06-29 19:41:00,
2013-06-29 15:43:00,81.5,61.7,29.74,SSW,193,3.6,3.6,51,0.00,,---,0.00,VWS V14.01,2013-06-29 19:43:00,
2013-06-29 15:44:00,81.5,61.7,29.74,SSE,155,7.6,7.6,51,0.00,,---,0.00,VWS V14.01,2013-06-29 19:44:00,
2013-06-29 15:46:00,81.7,61.8,29.74,SSW,193,4.9,7.6,51,0.00,,---,0.00,VWS V14.01,2013-06-29 19:46:00,
2013-06-29 15:48:00,81.5,61.1,29.74,SSE,159,4.9,4.9,50,0.00,,---,0.00,VWS V14.01,2013-06-29 19:48:00,
2013-06-29 15:49:00,81.5,61.1,29.74,SSE,159,4.9,4.9,50,0.00,,---,0.00,VWS V14.01,2013-06-29 19:49:00,
2013-06-29 15:51:00,81.3,60.9,29.74,South,171,4.5,8.3,50,0.00,,---,0.00,VWS V14.01,2013-06-29 19:51:00,
2013-06-29 15:53:00,81.5,61.7,29.74,ESE,116,6.3,6.3,51,0.00,,---,0.00,VWS V14.01,2013-06-29 19:53:00,
2013-06-29 15:54:00,81.5,61.7,29.74,SW,228,3.1,6.3,51,0.00,,---,0.00,VWS V14.01,2013-06-29 19:54:00,
2013-06-29 15:56:00,81.3,61.5,29.74,South,189,5.4,5.4,51,0.00,,---,0.00,VWS V14.01,2013-06-29 19:56:00,
2013-06-29 15:58:00,81.3,61.5,29.74,SSE,158,8.1,8.1,51,0.00,,---,0.00,VWS V14.01,2013-06-29 19:58:00,
2013-06-29 15:59:00,81.3,61.5,29.74,South,182,3.1,4.0,51,0.00,,---,0.00,VWS V14.01,2013-06-29 19:59:00,
2013-06-29 16:02:00,81.1,61.9,29.74,South,173,5.8,5.8,52,0.00,,---,0.00,VWS V14.01,2013-06-29 20:02:00,
2013-06-29 16:03:00,81.1,61.9,29.74,SSW,196,7.6,7.6,52,0.00,,---,0.00,VWS V14.01,2013-06-29 20:03:00,
2013-06-29 16:04:00,81.0,61.7,29.74,ESE,102,3.1,3.1,52,0.00,,---,0.00,VWS V14.01,2013-06-29 20:04:00,
2013-06-29 16:05:00,81.0,61.7,29.74,SE,132,6.3,8.7,52,0.00,,---,0.00,VWS V14.01,2013-06-29 20:05:00,
2013-06-29 16:07:00,81.0,62.2,29.74,SSW,209,3.1,4.0,53,0.00,,---,0.00,VWS V14.01,2013-06-29 20:07:00,
2013-06-29 16:08:00,81.0,62.2,29.74,SW,215,4.0,4.0,53,0.00,,---,0.00,VWS V14.01,2013-06-29 20:08:00,
2013-06-29 16:09:00,81.0,62.2,29.74,WSW,240,2.7,4.0,53,0.00,,---,0.00,VWS V14.01,2013-06-29 20:09:00,
2013-06-29 16:10:00,80.8,62.1,29.74,SSW,210,5.8,5.8,53,0.00,,---,0.00,VWS V14.01,2013-06-29 20:10:00,
2013-06-29 16:12:00,80.8,62.6,29.74,West,273,5.8,5.8,54,0.00,,---,0.00,VWS V14.01,2013-06-29 20:12:00,
2013-06-29 16:13:00,80.8,62.6,29.74,West,273,5.8,5.8,54,0.00,,---,0.00,VWS V14.01,2013-06-29 20:13:00,
2013-06-29 16:14:00,80.8,62.6,29.74,South,183,4.0,5.4,54,0.00,,---,0.00,VWS V14.01,2013-06-29 20:14:00,
2013-06-29 16:15:00,80.8,63.1,29.74,South,190,3.6,3.6,55,0.00,,---,0.00,VWS V14.01,2013-06-29 20:15:00,
2013-06-29 16:17:00,80.8,63.1,29.74,SSE,153,5.8,5.8,55,0.00,,---,0.00,VWS V14.01,2013-06-29 20:17:00,
2013-06-29 16:18:00,80.8,63.1,29.74,ESE,117,8.1,8.1,55,0.00,,---,0.00,VWS V14.01,2013-06-29 20:18:00,
2013-06-29 16:19:00,80.8,63.1,29.74,ESE,117,8.1,8.1,55,0.00,,---,0.00,VWS V14.01,2013-06-29 20:19:00,
2013-06-29 16:20:00,80.8,63.1,29.74,ESE,117,8.1,8.1,55,0.00,,---,0.00,VWS V14.01,2013-06-29 20:20:00,
2013-06-29 16:22:00,80.6,63.5,29.74,ESE,104,5.8,8.7,56,0.00,,---,0.00,VWS V14.01,2013-06-29 20:22:00,
2013-06-29 16:24:00,80.4,64.3,29.74,SSE,168,3.6,5.4,58,0.00,,---,0.00,VWS V14.01,2013-06-29 20:24:00,
2013-06-29 16:25:00,80.4,64.3,29.74,SSE,165,6.3,6.3,58,0.00,,---,0.00,VWS V14.01,2013-06-29 20:25:00,
2013-06-29 16:27:00,80.2,64.6,29.74,East,101,3.6,3.6,59,0.00,,---,0.00,VWS V14.01,2013-06-29 20:27:00,
2013-06-29 16:29:00,80.2,65.1,29.74,SSE,166,2.7,2.7,60,0.00,,---,0.00,VWS V14.01,2013-06-29 20:29:00,
2013-06-29 16:30:00,80.2,65.1,29.74,SSE,166,3.6,3.6,60,0.00,,---,0.00,VWS V14.01,2013-06-29 20:30:00,
2013-06-29 16:32:00,80.2,65.6,29.74,SSE,157,4.0,7.6,61,0.00,,---,0.00,VWS V14.01,2013-06-29 20:32:00,
2013-06-29 16:34:00,80.2,66.1,29.74,SW,219,6.7,6.7,62,0.00,,---,0.00,VWS V14.01,2013-06-29 20:34:00,
2013-06-29 16:35:00,80.2,66.1,29.74,SW,236,8.1,8.1,62,0.00,,---,0.00,VWS V14.01,2013-06-29 20:35:00,
2013-06-29 16:37:00,80.2,66.1,29.74,SW,223,5.8,5.8,62,0.00,,---,0.00,VWS V14.01,2013-06-29 20:37:00,
2013-06-29 16:39:00,80.2,66.1,29.74,SSW,197,5.8,8.3,62,0.00,,---,0.00,VWS V14.01,2013-06-29 20:39:00,
2013-06-29 16:40:00,80.2,66.1,29.74,South,176,0.0,5.4,62,0.00,,---,0.00,VWS V14.01,2013-06-29 20:40:00,
2013-06-29 16:42:00,80.1,64.5,29.74,South,185,10.1,10.1,59,0.00,,---,0.00,VWS V14.01,2013-06-29 20:42:00,
2013-06-29 16:44:00,80.1,63.5,29.74,SSW,204,8.3,11.0,57,0.00,,---,0.00,VWS V14.01,2013-06-29 20:44:00,
2013-06-29 16:45:00,79.9,62.8,29.74,South,186,14.5,14.5,56,0.00,,---,0.00,VWS V14.01,2013-06-29 20:45:00,
2013-06-29 16:47:00,79.9,63.3,29.74,SSW,193,4.0,4.0,57,0.00,,---,0.00,VWS V14.01,2013-06-29 20:47:00,
2013-06-29 16:49:00,79.9,62.8,29.74,East,97,3.6,13.2,56,0.00,,---,0.00,VWS V14.01,2013-06-29 20:49:00,
2013-06-29 16:50:00,79.9,62.8,29.74,South,180,8.7,12.8,56,0.00,,---,0.00,VWS V14.01,2013-06-29 20:50:00,
2013-06-29 16:52:00,80.1,62.5,29.74,ESE,122,7.6,8.3,55,0.00,,---,0.00,VWS V14.01,2013-06-29 20:52:00,
2013-06-29 16:54:00,80.1,62.5,29.74,South,172,3.6,5.8,55,0.00,,---,0.00,VWS V14.01,2013-06-29 20:54:00,
2013-06-29 16:55:00,79.9,61.8,29.74,SE,142,11.4,11.4,54,0.00,,---,0.00,VWS V14.01,2013-06-29 20:55:00,
2013-06-29 16:57:00,80.1,62.5,29.74,SSW,198,5.8,5.8,55,0.00,,---,0.00,VWS V14.01,2013-06-29 20:57:00,
2013-06-29 16:59:00,80.1,61.4,29.74,SSE,168,5.8,8.3,53,0.00,,---,0.00,VWS V14.01,2013-06-29 20:59:00,
2013-06-29 17:00:00,80.2,61.0,29.74,South,191,6.7,6.7,52,0.00,,---,0.00,VWS V14.01,2013-06-29 21:00:00,
2013-06-29 17:02:00,80.4,61.7,29.74,SSE,149,13.2,13.2,53,0.00,,---,0.00,VWS V14.01,2013-06-29 21:02:00,
2013-06-29 17:04:00,80.4,61.7,29.74,SSE,149,13.2,13.2,53,0.00,,---,0.00,VWS V14.01,2013-06-29 21:04:00,
2013-06-29 17:05:00,80.6,61.4,29.74,SSE,149,13.2,13.2,52,0.00,,---,0.00,VWS V14.01,2013-06-29 21:05:00,
2013-06-29 17:07:00,80.8,61.5,29.74,SSE,148,6.3,11.0,52,0.00,,---,0.00,VWS V14.01,2013-06-29 21:07:00,
2013-06-29 17:09:00,81.1,61.3,29.74,SSW,193,5.4,6.3,51,0.00,,---,0.00,VWS V14.01,2013-06-29 21:09:00,
2013-06-29 17:10:00,81.1,60.8,29.74,South,177,4.0,4.0,50,0.00,,---,0.00,VWS V14.01,2013-06-29 21:10:00,
2013-06-29 17:11:00,81.1,60.2,29.74,SSE,156,2.7,4.0,49,0.00,,---,0.00,VWS V14.01,2013-06-29 21:11:00,
2013-06-29 17:12:00,81.3,60.3,29.74,SSE,158,5.8,7.6,49,0.00,,---,0.00,VWS V14.01,2013-06-29 21:12:00,
2013-06-29 17:14:00,81.3,59.8,29.74,South,177,8.1,8.1,48,0.00,,---,0.00,VWS V14.01,2013-06-29 21:14:00,
2013-06-29 17:15:00,81.3,59.8,29.74,SE,143,4.0,6.3,48,0.00,,---,0.00,VWS V14.01,2013-06-29 21:15:00,
2013-06-29 17:16:00,81.3,59.8,29.74,SSW,213,4.0,6.3,48,0.00,,---,0.00,VWS V14.01,2013-06-29 21:16:00,
2013-06-29 17:17:00,81.1,59.0,29.74,SSE,153,13.2,13.2,47,0.00,,---,0.00,VWS V14.01,2013-06-29 21:17:00,
2013-06-29 17:19:00,81.1,59.6,29.74,NNW,344,4.0,7.6,48,0.00,,---,0.00,VWS V14.01,2013-06-29 21:19:00,
2013-06-29 17:20:00,81.1,59.6,29.74,SSW,195,8.1,8.1,48,0.00,,---,0.00,VWS V14.01,2013-06-29 21:20:00,
2013-06-29 17:21:00,81.1,59.0,29.74,SSW,195,8.1,8.1,47,0.00,,---,0.00,VWS V14.01,2013-06-29 21:21:00,
2013-06-29 17:23:00,81.1,59.6,29.74,SW,220,5.4,8.7,48,0.00,,---,0.00,VWS V14.01,2013-06-29 21:23:00,
2013-06-29 17:24:00,81.1,59.0,29.74,WSW,237,8.7,8.7,47,0.00,,---,0.00,VWS V14.01,2013-06-29 21:24:00,
2013-06-29 17:25:00,81.1,59.0,29.74,South,171,16.8,16.8,47,0.00,,---,0.00,VWS V14.01,2013-06-29 21:25:00,
2013-06-29 17:26:00,81.1,59.0,29.74,SSW,199,8.1,16.8,47,0.00,,---,0.00,VWS V14.01,2013-06-29 21:26:00,
2013-06-29 17:28:00,81.0,58.9,29.74,SSW,197,7.2,7.2,47,0.00,,---,0.00,VWS V14.01,2013-06-29 21:28:00,
2013-06-29 17:29:00,81.0,58.9,29.74,SE,137,5.4,5.8,47,0.00,,---,0.00,VWS V14.01,2013-06-29 21:29:00,
2013-06-29 17:30:00,81.0,58.9,29.74,South,172,11.4,11.4,47,0.00,,---,0.00,VWS V14.01,2013-06-29 21:30:00,
2013-06-29 17:31:00,81.0,58.9,29.74,South,172,11.4,11.4,47,0.00,,---,0.00,VWS V14.01,2013-06-29 21:31:00,
2013-06-29 17:33:00,81.0,58.9,29.74,SW,217,6.3,11.4,47,0.00,,---,0.00,VWS V14.01,2013-06-29 21:33:00,
2013-06-29 17:34:00,80.6,59.7,29.74,SSE,165,3.1,3.1,49,0.00,,---,0.00,VWS V14.01,2013-06-29 21:34:00,
2013-06-29 17:35:00,80.6,60.3,29.74,SSW,196,6.3,6.3,50,0.00,,---,0.00,VWS V14.01,2013-06-29 21:35:00,
2013-06-29 17:36:00,80.6,60.3,29.74,SSW,196,6.3,6.3,50,0.00,,---,0.00,VWS V14.01,2013-06-29 21:36:00,
2013-06-29 17:38:00,80.6,60.3,29.77,South,173,12.3,12.3,50,0.00,,---,0.00,VWS V14.01,2013-06-29 21:38:00,
2013-06-29 17:39:00,80.6,60.8,29.77,SSW,207,5.4,11.0,51,0.00,,---,0.00,VWS V14.01,2013-06-29 21:39:00,
2013-06-29 17:41:00,80.6,60.8,29.77,SSW,192,8.3,8.3,51,0.00,,---,0.00,VWS V14.01,2013-06-29 21:41:00,
2013-06-29 17:43:00,80.8,61.0,29.77,SE,146,5.8,5.8,51,0.00,,---,0.00,VWS V14.01,2013-06-29 21:43:00,
2013-06-29 17:45:00,80.6,60.3,29.77,WSW,254,5.4,8.7,50,0.00,,---,0.00,VWS V14.01,2013-06-29 21:45:00,
2013-06-29 17:46:00,80.6,59.7,29.77,SSW,198,5.4,5.4,49,0.00,,---,0.00,VWS V14.01,2013-06-29 21:46:00,
2013-06-29 17:48:00,80.2,59.9,29.77,SE,141,4.9,6.3,50,0.00,,---,0.00,VWS V14.01,2013-06-29 21:48:00,
2013-06-29 17:50:00,80.1,59.8,29.77,South,179,4.0,4.0,50,0.00,,---,0.00,VWS V14.01,2013-06-29 21:50:00,
2013-06-29 17:51:00,80.1,60.9,29.77,South,174,5.4,7.6,52,0.00,,---,0.00,VWS V14.01,2013-06-29 21:51:00,
2013-06-29 17:53:00,79.9,60.7,29.74,SSE,164,7.6,7.6,52,0.00,,---,0.00,VWS V14.01,2013-06-29 21:53:00,
2013-06-29 17:55:00,79.7,60.5,29.74,SSE,162,5.8,5.8,52,0.00,,---,0.00,VWS V14.01,2013-06-29 21:55:00,
2013-06-29 17:56:00,79.7,60.5,29.74,SSE,154,3.6,3.6,52,0.00,,---,0.00,VWS V14.01,2013-06-29 21:56:00,
2013-06-29 17:58:00,79.3,60.7,29.74,SSW,208,4.9,4.9,53,0.00,,---,0.00,VWS V14.01,2013-06-29 21:58:00,
2013-06-29 18:00:00,79.3,60.7,29.74,SSW,202,5.8,5.8,53,0.00,,---,0.00,VWS V14.01,2013-06-29 22:00:00,
2013-06-29 18:01:00,79.2,61.1,29.74,SSE,159,6.3,6.3,54,0.00,,---,0.00,VWS V14.01,2013-06-29 22:01:00,
2013-06-29 18:03:00,79.0,61.5,29.74,South,175,3.6,3.6,55,0.00,,---,0.00,VWS V14.01,2013-06-29 22:03:00,
2013-06-29 18:05:00,79.0,61.5,29.74,SW,216,3.1,3.1,55,0.00,,---,0.00,VWS V14.01,2013-06-29 22:05:00,
2013-06-29 18:06:00,79.0,61.5,29.74,South,176,5.4,6.3,55,0.00,,---,0.00,VWS V14.01,2013-06-29 22:06:00,
2013-06-29 18:08:00,79.0,61.5,29.74,South,173,3.1,3.1,55,0.00,,---,0.00,VWS V14.01,2013-06-29 22:08:00,
2013-06-29 18:10:00,79.0,61.5,29.74,South,185,4.0,4.0,55,0.00,,---,0.00,VWS V14.01,2013-06-29 22:10:00,
2013-06-29 18:11:00,78.8,62.8,29.74,South,185,4.0,4.0,58,0.00,,---,0.00,VWS V14.01,2013-06-29 22:11:00,
2013-06-29 18:13:00,78.8,63.3,29.74,SSW,208,2.7,5.4,59,0.00,,---,0.00,VWS V14.01,2013-06-29 22:13:00,
2013-06-29 18:15:00,78.6,63.6,29.74,South,183,3.6,3.6,60,0.00,,---,0.00,VWS V14.01,2013-06-29 22:15:00,
2013-06-29 18:16:00,78.6,63.6,29.74,East,88,2.7,7.2,60,0.00,,---,0.00,VWS V14.01,2013-06-29 22:16:00,
2013-06-29 18:18:00,78.6,64.1,29.74,South,188,6.3,6.3,61,0.00,,---,0.00,VWS V14.01,2013-06-29 22:18:00,
2013-06-29 18:20:00,78.6,64.1,29.74,SSW,197,2.2,2.2,61,0.00,,---,0.00,VWS V14.01,2013-06-29 22:20:00,
2013-06-29 18:21:00,78.6,64.1,29.74,SSW,196,5.4,5.4,61,0.00,,---,0.00,VWS V14.01,2013-06-29 22:21:00,
2013-06-29 18:23:00,78.6,64.5,29.74,SSW,212,4.9,4.9,62,0.00,,---,0.00,VWS V14.01,2013-06-29 22:23:00,
2013-06-29 18:25:00,78.6,65.0,29.74,SE,132,3.1,3.1,63,0.00,,---,0.00,VWS V14.01,2013-06-29 22:25:00,
2013-06-29 18:26:00,78.6,65.0,29.74,WSW,238,6.3,6.3,63,0.00,,---,0.00,VWS V14.01,2013-06-29 22:26:00,
2013-06-29 18:29:00,78.6,65.0,29.74,South,183,3.6,4.9,63,0.00,,---,0.00,VWS V14.01,2013-06-29 22:29:00,
2013-06-29 18:30:00,78.6,65.0,29.74,East,84,2.7,2.7,63,0.00,,---,0.00,VWS V14.01,2013-06-29 22:30:00,
2013-06-29 18:31:00,78.6,65.0,29.74,North,1,2.7,5.8,63,0.00,,---,0.00,VWS V14.01,2013-06-29 22:31:00,
2013-06-29 18:32:00,78.6,65.0,29.74,North,10,0.0,5.8,63,0.00,,---,0.00,VWS V14.01,2013-06-29 22:32:00,
2013-06-29 18:34:00,78.6,65.0,29.74,South,182,5.8,5.8,63,0.00,,---,0.00,VWS V14.01,2013-06-29 22:34:00,
2013-06-29 18:35:00,78.6,65.0,29.74,NE,39,2.7,5.8,63,0.00,,---,0.00,VWS V14.01,2013-06-29 22:35:00,
2013-06-29 18:36:00,78.6,65.0,29.74,SSE,153,4.0,4.0,63,0.00,,---,0.00,VWS V14.01,2013-06-29 22:36:00,
2013-06-29 18:37:00,78.6,65.0,29.74,South,177,4.0,4.0,63,0.00,,---,0.00,VWS V14.01,2013-06-29 22:37:00,
2013-06-29 18:39:00,78.6,65.0,29.77,South,186,6.3,15.4,63,0.00,,---,0.00,VWS V14.01,2013-06-29 22:39:00,
2013-06-29 18:40:00,78.4,64.3,29.77,South,186,10.5,10.5,62,0.00,,---,0.00,VWS V14.01,2013-06-29 22:40:00,
2013-06-29 18:41:00,78.4,64.3,29.77,SSE,165,3.6,5.4,62,0.00,,---,0.00,VWS V14.01,2013-06-29 22:41:00,
2013-06-29 18:42:00,78.4,64.3,29.77,SSE,165,3.6,5.4,62,0.00,,---,0.00,VWS V14.01,2013-06-29 22:42:00,
2013-06-29 18:44:00,78.4,64.3,29.77,South,169,5.4,5.4,62,0.00,,---,0.00,VWS V14.01,2013-06-29 22:44:00,
2013-06-29 18:45:00,78.4,64.3,29.77,ESE,117,5.4,5.4,62,0.00,,---,0.00,VWS V14.01,2013-06-29 22:45:00,
2013-06-29 18:46:00,78.4,64.8,29.77,East,80,5.8,5.8,63,0.00,,---,0.00,VWS V14.01,2013-06-29 22:46:00,
2013-06-29 18:47:00,78.4,64.8,29.77,SSE,160,5.4,5.8,63,0.00,,---,0.00,VWS V14.01,2013-06-29 22:47:00,
2013-06-29 18:49:00,78.4,64.8,29.77,South,171,3.1,3.1,63,0.00,,---,0.00,VWS V14.01,2013-06-29 22:49:00,
2013-06-29 18:50:00,78.4,64.8,29.77,SSW,200,2.7,3.1,63,0.00,,---,0.00,VWS V14.01,2013-06-29 22:50:00,
2013-06-29 18:51:00,78.4,64.8,29.77,SSW,205,4.0,7.6,63,0.00,,---,0.00,VWS V14.01,2013-06-29 22:51:00,
2013-06-29 18:52:00,78.4,64.8,29.77,SSW,205,4.0,4.0,63,0.00,,---,0.00,VWS V14.01,2013-06-29 22:52:00,
2013-06-29 18:54:00,78.4,64.8,29.77,SSW,199,4.0,4.0,63,0.00,,---,0.00,VWS V14.01,2013-06-29 22:54:00,
2013-06-29 18:55:00,78.4,64.8,29.77,West,263,7.6,7.6,63,0.00,,---,0.00,VWS V14.01,2013-06-29 22:55:00,
2013-06-29 18:56:00,78.4,64.8,29.77,SSW,196,8.3,8.3,63,0.00,,---,0.00,VWS V14.01,2013-06-29 22:56:00,
2013-06-29 18:57:00,78.4,64.8,29.77,SSW,196,8.3,8.3,63,0.00,,---,0.00,VWS V14.01,2013-06-29 22:57:00,
2013-06-29 18:59:00,78.3,65.5,29.77,SSE,160,5.8,5.8,65,0.00,,---,0.00,VWS V14.01,2013-06-29 22:59:00,
2013-06-29 19:00:00,78.3,65.5,29.77,SSE,160,5.8,5.8,65,0.00,,---,0.00,VWS V14.01,2013-06-29 23:00:00,
2013-06-29 19:02:00,78.3,65.5,29.77,SSE,160,5.8,5.8,65,0.00,,---,0.00,VWS V14.01,2013-06-29 23:02:00,
2013-06-29 19:04:00,78.1,65.8,29.77,SSE,153,5.8,5.8,66,0.00,,---,0.00,VWS V14.01,2013-06-29 23:04:00,
2013-06-29 19:05:00,78.1,65.8,29.77,SW,231,4.0,4.0,66,0.00,,---,0.00,VWS V14.01,2013-06-29 23:05:00,
2013-06-29 19:07:00,78.1,66.2,29.77,SSW,196,10.1,10.1,67,0.00,,---,0.00,VWS V14.01,2013-06-29 23:07:00,
2013-06-29 19:09:00,78.1,66.2,29.77,South,175,7.2,7.2,67,0.00,,---,0.00,VWS V14.01,2013-06-29 23:09:00,
2013-06-29 19:10:00,77.9,66.1,29.77,SE,141,7.6,7.6,67,0.00,,---,0.00,VWS V14.01,2013-06-29 23:10:00,
2013-06-29 19:12:00,77.9,66.1,29.77,SSW,195,2.7,2.7,67,0.00,,---,0.00,VWS V14.01,2013-06-29 23:12:00,
2013-06-29 19:14:00,77.9,66.5,29.74,South,190,4.5,5.4,68,0.00,,---,0.00,VWS V14.01,2013-06-29 23:14:00,
2013-06-29 19:16:00,77.9,66.5,29.74,SW,223,5.4,10.5,68,0.00,,---,0.00,VWS V14.01,2013-06-29 23:16:00,
2013-06-29 19:17:00,77.9,66.5,29.74,SSW,194,8.1,8.1,68,0.00,,---,0.00,VWS V14.01,2013-06-29 23:17:00,
2013-06-29 19:19:00,77.9,66.5,29.74,SW,217,4.0,4.0,68,0.00,,---,0.00,VWS V14.01,2013-06-29 23:19:00,
2013-06-29 19:21:00,77.7,66.8,29.77,ESE,113,4.5,4.5,69,0.00,,---,0.00,VWS V14.01,2013-06-29 23:21:00,
2013-06-29 19:22:00,77.7,66.8,29.77,SE,125,4.5,4.9,69,0.00,,---,0.00,VWS V14.01,2013-06-29 23:22:00,
2013-06-29 19:24:00,77.7,66.8,29.77,ESE,113,2.7,5.4,69,0.00,,---,0.00,VWS V14.01,2013-06-29 23:24:00,
2013-06-29 19:26:00,77.7,67.2,29.77,SSW,206,7.2,7.2,70,0.00,,---,0.00,VWS V14.01,2013-06-29 23:26:00,
2013-06-29 19:27:00,77.7,67.2,29.77,SSW,206,7.2,7.2,70,0.00,,---,0.00,VWS V14.01,2013-06-29 23:27:00,
2013-06-29 19:28:00,77.5,67.0,29.77,SSW,207,5.8,7.2,70,0.00,,---,0.00,VWS V14.01,2013-06-29 23:28:00,
2013-06-29 19:29:00,77.5,67.0,29.77,NNW,329,3.1,5.4,70,0.00,,---,0.00,VWS V14.01,2013-06-29 23:29:00,
2013-06-29 19:31:00,77.5,67.0,29.77,South,182,4.0,4.0,70,0.00,,---,0.00,VWS V14.01,2013-06-29 23:31:00,
2013-06-29 19:32:00,77.5,67.0,29.77,SSE,147,5.4,6.3,70,0.00,,---,0.00,VWS V14.01,2013-06-29 23:32:00,
2013-06-29 19:33:00,77.5,67.0,29.77,South,190,4.9,8.3,70,0.00,,---,0.00,VWS V14.01,2013-06-29 23:33:00,
2013-06-29 19:34:00,77.4,66.8,29.77,SW,222,3.6,3.6,70,0.00,,---,0.00,VWS V14.01,2013-06-29 23:34:00,
2013-06-29 19:36:00,77.4,66.8,29.77,South,172,8.7,8.7,70,0.00,,---,0.00,VWS V14.01,2013-06-29 23:36:00,
2013-06-29 19:37:00,77.4,66.8,29.77,SE,131,0.0,5.8,70,0.00,,---,0.00,VWS V14.01,2013-06-29 23:37:00,
2013-06-29 19:38:00,77.4,66.8,29.77,SW,230,4.0,5.8,70,0.00,,---,0.00,VWS V14.01,2013-06-29 23:38:00,
2013-06-29 19:39:00,77.4,66.8,29.74,SSW,203,6.3,6.3,70,0.00,,---,0.00,VWS V14.01,2013-06-29 23:39:00,
2013-06-29 19:41:00,77.4,66.8,29.74,SSE,148,3.1,5.8,70,0.00,,---,0.00,VWS V14.01,2013-06-29 23:41:00,
2013-06-29 19:42:00,77.4,66.8,29.74,SSW,202,2.7,5.4,70,0.00,,---,0.00,VWS V14.01,2013-06-29 23:42:00,
2013-06-29 19:43:00,77.4,66.4,29.74,SSW,197,5.4,5.4,69,0.00,,---,0.00,VWS V14.01,2013-06-29 23:43:00,
2013-06-29 19:44:00,77.4,66.4,29.74,SW,220,3.6,8.1,69,0.00,,---,0.00,VWS V14.01,2013-06-29 23:44:00,
2013-06-29 19:46:00,77.2,66.2,29.74,SSW,204,8.1,8.1,69,0.00,,---,0.00,VWS V14.01,2013-06-29 23:46:00,
2013-06-29 19:47:00,77.4,66.4,29.74,SSW,199,8.1,8.1,69,0.00,,---,0.00,VWS V14.01,2013-06-29 23:47:00,
2013-06-29 19:48:00,77.4,66.4,29.74,SSE,159,4.0,8.1,69,0.00,,---,0.00,VWS V14.01,2013-06-29 23:48:00,
2013-06-29 19:49:00,77.4,66.4,29.74,SSE,156,6.3,6.3,69,0.00,,---,0.00,VWS V14.01,2013-06-29 23:49:00,
2013-06-29 19:51:00,77.2,66.2,29.77,SE,131,5.4,5.4,69,0.00,,---,0.00,VWS V14.01,2013-06-29 23:51:00,
2013-06-29 19:52:00,77.2,66.2,29.77,SE,131,5.4,5.4,69,0.00,,---,0.00,VWS V14.01,2013-06-29 23:52:00,
2013-06-29 19:53:00,77.2,66.2,29.77,SE,131,5.4,5.4,69,0.00,,---,0.00,VWS V14.01,2013-06-29 23:53:00,
2013-06-29 19:55:00,77.2,66.2,29.77,SW,225,3.1,5.4,69,0.00,,---,0.00,VWS V14.01,2013-06-29 23:55:00,
2013-06-29 19:56:00,77.2,66.2,29.77,South,181,5.8,5.8,69,0.00,,---,0.00,VWS V14.01,2013-06-29 23:56:00,
2013-06-29 19:57:00,77.2,66.2,29.77,WNW,286,7.6,7.6,69,0.00,,---,0.00,VWS V14.01,2013-06-29 23:57:00,
2013-06-29 19:58:00,77.2,66.2,29.77,South,188,6.3,7.6,69,0.00,,---,0.00,VWS V14.01,2013-06-29 23:58:00,
2013-06-29 20:00:00,77.2,66.2,29.77,SSW,207,8.7,8.7,69,0.00,,---,0.00,VWS V14.01,2013-06-30 00:00:00,
2013-06-29 20:01:00,77.2,66.2,29.77,SSW,199,5.4,8.3,69,0.00,,---,0.00,VWS V14.01,2013-06-30 00:01:00,
2013-06-29 20:02:00,77.2,66.2,29.77,SSW,199,5.4,5.4,69,0.00,,---,0.00,VWS V14.01,2013-06-30 00:02:00,
2013-06-29 20:03:00,77.2,66.2,29.77,SSW,199,5.4,5.4,69,0.00,,---,0.00,VWS V14.01,2013-06-30 00:03:00,
2013-06-29 20:05:00,77.2,66.2,29.77,SSW,202,10.5,10.5,69,0.00,,---,0.00,VWS V14.01,2013-06-30 00:05:00,
2013-06-29 20:06:00,77.2,66.2,29.77,SSW,202,10.5,10.5,69,0.00,,---,0.00,VWS V14.01,2013-06-30 00:06:00,
2013-06-29 20:07:00,77.2,66.2,29.77,SSE,155,4.9,10.5,69,0.00,,---,0.00,VWS V14.01,2013-06-30 00:07:00,
2013-06-29 20:08:00,77.0,66.1,29.77,SSE,155,4.9,4.9,69,0.00,,---,0.00,VWS V14.01,2013-06-30 00:08:00,
2013-06-29 20:10:00,77.0,66.1,29.77,SSE,153,8.3,8.3,69,0.00,,---,0.00,VWS V14.01,2013-06-30 00:10:00,
2013-06-29 20:11:00,77.0,66.1,29.77,SSW,213,3.1,3.1,69,0.00,,---,0.00,VWS V14.01,2013-06-30 00:11:00,
2013-06-29 20:12:00,77.0,66.1,29.77,South,185,3.1,3.1,69,0.00,,---,0.00,VWS V14.01,2013-06-30 00:12:00,
2013-06-29 20:13:00,77.0,66.1,29.77,SSW,202,3.6,3.6,69,0.00,,---,0.00,VWS V14.01,2013-06-30 00:13:00,
2013-06-29 20:15:00,77.0,66.1,29.77,SSE,150,5.4,8.1,69,0.00,,---,0.00,VWS V14.01,2013-06-30 00:15:00,
2013-06-29 20:17:00,77.0,66.1,29.77,SSE,167,5.4,5.4,69,0.00,,---,0.00,VWS V14.01,2013-06-30 00:17:00,
2013-06-29 20:18:00,77.0,66.1,29.77,SSE,149,6.3,6.3,69,0.00,,---,0.00,VWS V14.01,2013-06-30 00:18:00,
2013-06-29 20:20:00,77.0,66.1,29.77,SSW,200,3.6,10.5,69,0.00,,---,0.00,VWS V14.01,2013-06-30 00:20:00,
2013-06-29 20:22:00,77.0,66.1,29.77,South,176,4.0,5.8,69,0.00,,---,0.00,VWS V14.01,2013-06-30 00:22:00,
2013-06-29 20:23:00,77.0,66.1,29.77,SSE,163,6.3,6.3,69,0.00,,---,0.00,VWS V14.01,2013-06-30 00:23:00,
2013-06-29 20:25:00,77.0,66.1,29.77,SSE,157,5.8,5.8,69,0.00,,---,0.00,VWS V14.01,2013-06-30 00:25:00,
2013-06-29 20:27:00,77.0,66.1,29.77,SSW,197,4.9,10.1,69,0.00,,---,0.00,VWS V14.01,2013-06-30 00:27:00,
2013-06-29 20:28:00,77.0,66.5,29.77,SSE,167,4.0,4.9,70,0.00,,---,0.00,VWS V14.01,2013-06-30 00:28:00,
2013-06-29 20:30:00,77.0,66.5,29.77,SSE,152,5.4,5.4,70,0.00,,---,0.00,VWS V14.01,2013-06-30 00:30:00,
2013-06-29 20:32:00,77.0,66.5,29.77,SSW,193,6.7,6.7,70,0.00,,---,0.00,VWS V14.01,2013-06-30 00:32:00,
2013-06-29 20:33:00,77.0,66.5,29.77,WSW,252,7.2,7.2,70,0.00,,---,0.00,VWS V14.01,2013-06-30 00:33:00,
2013-06-29 20:35:00,77.0,66.5,29.77,SE,138,4.9,4.9,70,0.00,,---,0.00,VWS V14.01,2013-06-30 00:35:00,
2013-06-29 20:37:00,77.0,66.5,29.77,SSW,202,6.3,6.3,70,0.00,,---,0.00,VWS V14.01,2013-06-30 00:37:00,
2013-06-29 20:38:00,77.0,66.5,29.77,SSW,206,3.6,3.6,70,0.00,,---,0.00,VWS V14.01,2013-06-30 00:38:00,
2013-06-29 20:39:00,77.0,66.5,29.77,South,189,7.2,7.2,70,0.00,,---,0.00,VWS V14.01,2013-06-30 00:39:00,
2013-06-29 20:40:00,77.0,66.5,29.77,South,178,5.8,6.3,70,0.00,,---,0.00,VWS V14.01,2013-06-30 00:40:00,
2013-06-29 20:42:00,77.0,66.5,29.77,South,173,12.8,12.8,70,0.00,,---,0.00,VWS V14.01,2013-06-30 00:42:00,
2013-06-29 20:43:00,77.0,66.5,29.77,South,182,11.0,11.0,70,0.00,,---,0.00,VWS V14.01,2013-06-30 00:43:00,
2013-06-29 20:44:00,77.0,66.5,29.77,South,170,7.6,11.0,70,0.00,,---,0.00,VWS V14.01,2013-06-30 00:44:00,
2013-06-29 20:45:00,77.0,66.5,29.77,SSE,150,6.3,6.3,70,0.00,,---,0.00,VWS V14.01,2013-06-30 00:45:00,
2013-06-29 20:47:00,76.8,66.3,29.77,SE,146,5.8,5.8,70,0.00,,---,0.00,VWS V14.01,2013-06-30 00:47:00,
2013-06-29 20:48:00,76.8,66.3,29.77,SSW,205,3.1,3.1,70,0.00,,---,0.00,VWS V14.01,2013-06-30 00:48:00,
2013-06-29 20:49:00,76.8,66.3,29.77,SSW,193,6.3,6.3,70,0.00,,---,0.00,VWS V14.01,2013-06-30 00:49:00,
2013-06-29 20:51:00,76.8,66.3,29.80,SSE,158,4.9,8.1,70,0.00,,---,0.00,VWS V14.01,2013-06-30 00:51:00,
2013-06-29 20:52:00,76.8,66.3,29.80,South,179,5.4,5.4,70,0.00,,---,0.00,VWS V14.01,2013-06-30 00:52:00,
2013-06-29 20:53:00,76.8,66.3,29.80,South,175,4.9,6.3,70,0.00,,---,0.00,VWS V14.01,2013-06-30 00:53:00,
2013-06-29 20:54:00,76.8,66.3,29.80,South,175,4.9,6.3,70,0.00,,---,0.00,VWS V14.01,2013-06-30 00:54:00,
2013-06-29 20:56:00,76.8,66.3,29.80,SSE,168,5.8,5.8,70,0.00,,---,0.00,VWS V14.01,2013-06-30 00:56:00,
2013-06-29 20:57:00,76.8,66.3,29.80,SE,133,8.1,8.1,70,0.00,,---,0.00,VWS V14.01,2013-06-30 00:57:00,
2013-06-29 20:58:00,76.8,66.3,29.80,ENE,75,8.7,9.6,70,0.00,,---,0.00,VWS V14.01,2013-06-30 00:58:00,
2013-06-29 20:59:00,76.8,66.3,29.80,SSW,199,7.6,9.6,70,0.00,,---,0.00,VWS V14.01,2013-06-30 00:59:00,
2013-06-29 21:01:00,76.8,66.3,29.80,SE,129,5.8,5.8,70,0.00,,---,0.00,VWS V14.01,2013-06-30 01:01:00,
2013-06-29 21:02:00,76.8,66.3,29.80,SE,129,5.8,5.8,70,0.00,,---,0.00,VWS V14.01,2013-06-30 01:02:00,
2013-06-29 21:03:00,76.8,66.7,29.80,South,175,5.8,5.8,71,0.00,,---,0.00,VWS V14.01,2013-06-30 01:03:00,
2013-06-29 21:04:00,76.8,66.7,29.80,South,175,5.8,5.8,71,0.00,,---,0.00,VWS V14.01,2013-06-30 01:04:00,
2013-06-29 21:06:00,76.8,66.7,29.80,SE,138,5.8,8.7,71,0.00,,---,0.00,VWS V14.01,2013-06-30 01:06:00,
2013-06-29 21:07:00,76.8,66.7,29.80,SSE,147,7.6,7.6,71,0.00,,---,0.00,VWS V14.01,2013-06-30 01:07:00,
2013-06-29 21:08:00,76.8,66.7,29.80,ESE,123,3.6,3.6,71,0.00,,---,0.00,VWS V14.01,2013-06-30 01:08:00,
2013-06-29 21:09:00,76.8,66.7,29.80,ESE,123,3.6,3.6,71,0.00,,---,0.00,VWS V14.01,2013-06-30 01:09:00,
2013-06-29 21:11:00,76.8,66.3,29.80,SSE,163,6.3,6.3,70,0.00,,---,0.00,VWS V14.01,2013-06-30 01:11:00,
2013-06-29 21:12:00,76.8,66.3,29.80,North,353,2.7,2.7,70,0.00,,---,0.00,VWS V14.01,2013-06-30 01:12:00,
2013-06-29 21:13:00,76.8,66.3,29.80,SSE,157,6.3,6.3,70,0.00,,---,0.00,VWS V14.01,2013-06-30 01:13:00,
2013-06-29 21:14:00,76.8,66.3,29.80,South,170,3.6,6.3,70,0.00,,---,0.00,VWS V14.01,2013-06-30 01:14:00,
2013-06-29 21:16:00,76.8,66.3,29.80,SSE,152,3.6,3.6,70,0.00,,---,0.00,VWS V14.01,2013-06-30 01:16:00,
2013-06-29 21:17:00,76.8,66.3,29.80,SSE,157,3.1,7.6,70,0.00,,---,0.00,VWS V14.01,2013-06-30 01:17:00,
2013-06-29 21:18:00,76.8,66.3,29.80,SSE,147,3.6,3.6,70,0.00,,---,0.00,VWS V14.01,2013-06-30 01:18:00,
2013-06-29 21:19:00,76.8,66.3,29.80,SSE,147,3.6,3.6,70,0.00,,---,0.00,VWS V14.01,2013-06-30 01:19:00,
2013-06-29 21:21:00,76.8,66.3,29.80,SSE,156,5.4,5.4,70,0.00,,---,0.00,VWS V14.01,2013-06-30 01:21:00,
2013-06-29 21:22:00,76.8,66.3,29.80,SSW,200,4.0,4.0,70,0.00,,---,0.00,VWS V14.01,2013-06-30 01:22:00,
2013-06-29 21:24:00,76.8,66.3,29.80,WSW,241,4.9,4.9,70,0.00,,---,0.00,VWS V14.01,2013-06-30 01:24:00,
2013-06-29 21:26:00,76.8,66.3,29.80,SW,218,2.7,2.7,70,0.00,,---,0.00,VWS V14.01,2013-06-30 01:26:00,
2013-06-29 21:27:00,76.8,66.3,29.80,NNW,332,4.9,7.2,70,0.00,,---,0.00,VWS V14.01,2013-06-30 01:27:00,
2013-06-29 21:29:00,76.8,65.9,29.80,SSE,160,2.7,6.3,69,0.00,,---,0.00,VWS V14.01,2013-06-30 01:29:00,
2013-06-29 21:31:00,76.8,65.9,29.80,SSW,203,3.6,3.6,69,0.00,,---,0.00,VWS V14.01,2013-06-30 01:31:00,
2013-06-29 21:32:00,76.8,65.5,29.80,South,183,5.4,5.4,68,0.00,,---,0.00,VWS V14.01,2013-06-30 01:32:00,
2013-06-29 21:34:00,76.8,65.5,29.80,SSE,165,5.4,8.7,68,0.00,,---,0.00,VWS V14.01,2013-06-30 01:34:00,
2013-06-29 21:36:00,76.8,65.5,29.80,SSW,198,6.3,6.3,68,0.00,,---,0.00,VWS V14.01,2013-06-30 01:36:00,
2013-06-29 21:37:00,76.8,65.5,29.80,SSE,161,3.1,3.1,68,0.00,,---,0.00,VWS V14.01,2013-06-30 01:37:00,
2013-06-29 21:39:00,76.8,65.5,29.80,South,188,3.1,3.1,68,0.00,,---,0.00,VWS V14.01,2013-06-30 01:39:00,
2013-06-29 21:41:00,77.0,65.2,29.80,South,189,4.9,4.9,67,0.00,,---,0.00,VWS V14.01,2013-06-30 01:41:00,
2013-06-29 21:42:00,76.8,65.0,29.80,SSW,193,2.7,4.9,67,0.00,,---,0.00,VWS V14.01,2013-06-30 01:42:00,
2013-06-29 21:44:00,76.8,65.0,29.80,SSE,159,4.9,4.9,67,0.00,,---,0.00,VWS V14.01,2013-06-30 01:44:00,
2013-06-29 21:45:00,76.8,65.0,29.80,SSW,196,0.0,4.9,67,0.00,,---,0.00,VWS V14.01,2013-06-30 01:45:00,
2013-06-29 21:46:00,76.8,65.0,29.80,South,176,4.5,4.5,67,0.00,,---,0.00,VWS V14.01,2013-06-30 01:46:00,
2013-06-29 21:47:00,76.8,65.0,29.80,SE,140,5.4,5.4,67,0.00,,---,0.00,VWS V14.01,2013-06-30 01:47:00,
2013-06-29 21:49:00,76.6,64.9,29.80,SSW,204,2.7,2.7,67,0.00,,---,0.00,VWS V14.01,2013-06-30 01:49:00,
2013-06-29 21:51:00,76.6,64.9,29.80,SSE,168,4.0,4.0,67,0.00,,---,0.00,VWS V14.01,2013-06-30 01:51:00,
2013-06-29 21:52:00,76.6,65.3,29.80,SSE,148,8.7,8.7,68,0.00,,---,0.00,VWS V14.01,2013-06-30 01:52:00,
2013-06-29 21:54:00,76.5,65.1,29.80,South,171,4.9,4.9,68,0.00,,---,0.00,VWS V14.01,2013-06-30 01:54:00,
2013-06-29 21:55:00,76.5,65.1,29.80,SSE,155,5.8,5.8,68,0.00,,---,0.00,VWS V14.01,2013-06-30 01:55:00,
2013-06-29 21:57:00,76.5,65.1,29.80,South,186,7.6,7.6,68,0.00,,---,0.00,VWS V14.01,2013-06-30 01:57:00,
2013-06-29 21:58:00,76.5,65.1,29.80,SSE,167,7.2,7.6,68,0.00,,---,0.00,VWS V14.01,2013-06-30 01:58:00,
2013-06-29 21:59:00,76.5,65.1,29.80,South,181,6.3,6.3,68,0.00,,---,0.00,VWS V14.01,2013-06-30 01:59:00,
2013-06-29 22:00:00,76.5,65.1,29.80,South,181,6.3,6.3,68,0.00,,---,0.00,VWS V14.01,2013-06-30 02:00:00,
2013-06-29 22:02:00,76.5,65.1,29.80,SSE,149,5.8,5.8,68,0.00,,---,0.00,VWS V14.01,2013-06-30 02:02:00,
2013-06-29 22:03:00,76.5,65.1,29.80,SSE,150,3.6,5.8,68,0.00,,---,0.00,VWS V14.01,2013-06-30 02:03:00,
2013-06-29 22:04:00,76.3,65.8,29.80,SSE,159,6.3,6.3,70,0.00,,---,0.00,VWS V14.01,2013-06-30 02:04:00,
2013-06-29 22:05:00,76.3,65.8,29.80,SSE,150,3.1,6.3,70,0.00,,---,0.00,VWS V14.01,2013-06-30 02:05:00,
2013-06-29 22:07:00,76.3,65.8,29.80,SSW,192,5.8,5.8,70,0.00,,---,0.00,VWS V14.01,2013-06-30 02:07:00,
2013-06-29 22:08:00,76.3,65.8,29.80,SSW,192,5.8,5.8,70,0.00,,---,0.00,VWS V14.01,2013-06-30 02:08:00,
2013-06-29 22:09:00,76.3,66.2,29.80,SSE,154,7.6,7.6,71,0.00,,---,0.00,VWS V14.01,2013-06-30 02:09:00,
2013-06-29 22:10:00,76.3,66.2,29.80,SSE,154,7.6,7.6,71,0.00,,---,0.00,VWS V14.01,2013-06-30 02:10:00,
2013-06-29 22:12:00,76.5,66.8,29.80,ESE,123,6.3,6.3,72,0.00,,---,0.00,VWS V14.01,2013-06-30 02:12:00,
2013-06-29 22:13:00,76.5,66.8,29.80,SSE,163,2.7,2.7,72,0.00,,---,0.00,VWS V14.01,2013-06-30 02:13:00,
2013-06-29 22:14:00,76.5,66.8,29.80,South,186,10.5,10.5,72,0.00,,---,0.00,VWS V14.01,2013-06-30 02:14:00,
2013-06-29 22:15:00,76.5,66.8,29.80,South,186,10.5,10.5,72,0.00,,---,0.00,VWS V14.01,2013-06-30 02:15:00,
2013-06-29 22:17:00,76.5,67.2,29.80,SSE,165,3.6,3.6,73,0.00,,---,0.00,VWS V14.01,2013-06-30 02:17:00,
2013-06-29 22:18:00,76.6,67.3,29.80,South,187,5.4,5.4,73,0.00,,---,0.00,VWS V14.01,2013-06-30 02:18:00,
2013-06-29 22:20:00,76.6,67.3,29.80,SSE,166,4.0,4.0,73,0.00,,---,0.00,VWS V14.01,2013-06-30 02:20:00,
2013-06-29 22:22:00,76.6,67.3,29.80,SSE,153,5.4,5.4,73,0.00,,---,0.00,VWS V14.01,2013-06-30 02:22:00,
2013-06-29 22:24:00,76.8,67.9,29.80,SSE,156,8.1,8.1,74,0.00,,---,0.00,VWS V14.01,2013-06-30 02:24:00,
2013-06-29 22:25:00,76.8,67.9,29.80,South,169,3.6,8.1,74,0.00,,---,0.00,VWS V14.01,2013-06-30 02:25:00,
2013-06-29 22:27:00,76.8,67.9,29.80,SSW,212,4.9,8.7,74,0.00,,---,0.00,VWS V14.01,2013-06-30 02:27:00,
2013-06-29 22:29:00,76.8,67.9,29.80,SSE,162,8.7,8.7,74,0.00,,---,0.00,VWS V14.01,2013-06-30 02:29:00,
2013-06-29 22:30:00,76.8,67.9,29.80,SSW,212,4.9,4.9,74,0.00,,---,0.00,VWS V14.01,2013-06-30 02:30:00,
2013-06-29 22:32:00,76.8,67.9,29.80,South,182,8.1,8.1,74,0.00,,---,0.00,VWS V14.01,2013-06-30 02:32:00,
2013-06-29 22:34:00,77.2,67.9,29.80,SSW,192,3.1,3.1,73,0.00,,---,0.00,VWS V14.01,2013-06-30 02:34:00,
2013-06-29 22:35:00,77.2,67.9,29.80,SSE,153,0.0,3.1,73,0.00,,---,0.00,VWS V14.01,2013-06-30 02:35:00,
2013-06-29 22:37:00,77.2,67.9,29.80,SSW,198,7.6,7.6,73,0.00,,---,0.00,VWS V14.01,2013-06-30 02:37:00,
2013-06-29 22:39:00,77.2,67.9,29.80,South,191,5.4,7.6,73,0.00,,---,0.00,VWS V14.01,2013-06-30 02:39:00,
2013-06-29 22:40:00,77.2,67.9,29.80,South,191,5.4,5.4,73,0.00,,---,0.00,VWS V14.01,2013-06-30 02:40:00,
2013-06-29 22:42:00,77.4,68.0,29.80,SSE,150,4.0,5.8,73,0.00,,---,0.00,VWS V14.01,2013-06-30 02:42:00,
2013-06-29 22:44:00,77.4,67.6,29.80,SSE,168,4.0,4.0,72,0.00,,---,0.00,VWS V14.01,2013-06-30 02:44:00,
2013-06-29 22:45:00,77.4,67.6,29.80,South,174,2.7,4.0,72,0.00,,---,0.00,VWS V14.01,2013-06-30 02:45:00,
2013-06-29 22:47:00,77.4,67.6,29.80,SSE,164,4.0,9.6,72,0.00,,---,0.00,VWS V14.01,2013-06-30 02:47:00,
2013-06-29 22:49:00,77.4,67.6,29.80,South,177,4.0,4.0,72,0.00,,---,0.00,VWS V14.01,2013-06-30 02:49:00,
2013-06-29 22:50:00,77.4,67.6,29.80,SSW,199,3.1,4.0,72,0.00,,---,0.00,VWS V14.01,2013-06-30 02:50:00,
2013-06-29 22:52:00,77.4,67.6,29.80,South,188,4.0,7.6,72,0.00,,---,0.00,VWS V14.01,2013-06-30 02:52:00,
2013-06-29 22:54:00,77.4,67.6,29.80,SSW,200,3.6,3.6,72,0.00,,---,0.00,VWS V14.01,2013-06-30 02:54:00,
2013-06-29 22:55:00,77.4,67.6,29.80,SSE,151,5.8,5.8,72,0.00,,---,0.00,VWS V14.01,2013-06-30 02:55:00,
2013-06-29 22:57:00,77.4,67.6,29.80,NNW,342,2.7,5.8,72,0.00,,---,0.00,VWS V14.01,2013-06-30 02:57:00,
2013-06-29 22:59:00,77.4,67.6,29.80,South,183,3.6,3.6,72,0.00,,---,0.00,VWS V14.01,2013-06-30 02:59:00,
2013-06-29 23:00:00,77.4,67.6,29.80,South,183,3.6,3.6,72,0.00,,---,0.00,VWS V14.01,2013-06-30 03:00:00,
2013-06-29 23:01:00,77.4,67.6,29.80,SSE,149,5.8,5.8,72,0.00,,---,0.00,VWS V14.01,2013-06-30 03:01:00,
2013-06-29 23:02:00,77.4,67.6,29.80,SSE,154,3.1,3.1,72,0.00,,---,0.00,VWS V14.01,2013-06-30 03:02:00,
2013-06-29 23:04:00,77.4,67.6,29.80,SSW,212,6.3,6.3,72,0.00,,---,0.00,VWS V14.01,2013-06-30 03:04:00,
2013-06-29 23:05:00,77.4,67.6,29.83,South,191,2.7,6.3,72,0.00,,---,0.00,VWS V14.01,2013-06-30 03:05:00,
2013-06-29 23:06:00,77.4,67.6,29.83,South,191,0.0,2.7,72,0.00,,---,0.00,VWS V14.01,2013-06-30 03:06:00,
2013-06-29 23:08:00,77.4,67.6,29.83,SSE,160,4.9,4.9,72,0.00,,---,0.00,VWS V14.01,2013-06-30 03:08:00,
2013-06-29 23:09:00,77.4,67.6,29.83,South,170,5.8,5.8,72,0.00,,---,0.00,VWS V14.01,2013-06-30 03:09:00,
2013-06-29 23:10:00,77.2,67.9,29.83,South,177,7.6,7.6,73,0.00,,---,0.00,VWS V14.01,2013-06-30 03:10:00,
2013-06-29 23:11:00,77.2,67.9,29.83,SSE,156,5.4,7.6,73,0.00,,---,0.00,VWS V14.01,2013-06-30 03:11:00,
2013-06-29 23:13:00,77.2,67.9,29.83,SSW,210,2.7,10.5,73,0.00,,---,0.00,VWS V14.01,2013-06-30 03:13:00,
2013-06-29 23:14:00,77.2,68.3,29.83,SSE,153,3.1,4.0,74,0.00,,---,0.00,VWS V14.01,2013-06-30 03:14:00,
2013-06-29 23:15:00,77.2,68.3,29.83,South,170,3.6,3.6,74,0.00,,---,0.00,VWS V14.01,2013-06-30 03:15:00,
2013-06-29 23:16:00,77.2,68.3,29.83,South,169,4.0,4.0,74,0.00,,---,0.00,VWS V14.01,2013-06-30 03:16:00,
2013-06-29 23:18:00,77.2,68.3,29.83,SE,146,8.1,8.1,74,0.00,,---,0.00,VWS V14.01,2013-06-30 03:18:00,
2013-06-29 23:19:00,77.2,68.3,29.83,SSW,195,5.4,5.4,74,0.00,,---,0.00,VWS V14.01,2013-06-30 03:19:00,
2013-06-29 23:20:00,77.2,68.3,29.83,SSW,195,5.4,5.4,74,0.00,,---,0.00,VWS V14.01,2013-06-30 03:20:00,
2013-06-29 23:21:00,77.2,68.3,29.83,South,183,5.8,5.8,74,0.00,,---,0.00,VWS V14.01,2013-06-30 03:21:00,
2013-06-29 23:23:00,77.2,68.7,29.83,SE,126,8.3,8.3,75,0.00,,---,0.00,VWS V14.01,2013-06-30 03:23:00,
2013-06-29 23:24:00,77.2,68.7,29.83,ESE,119,4.0,4.0,75,0.00,,---,0.00,VWS V14.01,2013-06-30 03:24:00,
2013-06-29 23:25:00,77.2,68.7,29.83,SSE,157,7.6,7.6,75,0.00,,---,0.00,VWS V14.01,2013-06-30 03:25:00,
2013-06-29 23:26:00,77.2,68.7,29.83,South,185,6.3,7.6,75,0.00,,---,0.00,VWS V14.01,2013-06-30 03:26:00,
2013-06-29 23:28:00,77.2,69.0,29.83,SSE,155,4.0,4.0,76,0.00,,---,0.00,VWS V14.01,2013-06-30 03:28:00,
2013-06-29 23:29:00,77.4,69.2,29.83,SE,135,6.3,6.3,76,0.00,,---,0.00,VWS V14.01,2013-06-30 03:29:00,
2013-06-29 23:30:00,77.4,69.2,29.83,SSW,199,4.0,6.3,76,0.00,,---,0.00,VWS V14.01,2013-06-30 03:30:00,
2013-06-29 23:31:00,77.4,69.2,29.83,SE,129,2.2,6.3,76,0.00,,---,0.00,VWS V14.01,2013-06-30 03:31:00,
2013-06-29 23:33:00,77.4,69.2,29.83,South,182,3.6,7.6,76,0.00,,---,0.00,VWS V14.01,2013-06-30 03:33:00,
2013-06-29 23:34:00,77.4,69.6,29.83,South,182,8.7,8.7,77,0.00,,---,0.00,VWS V14.01,2013-06-30 03:34:00,
2013-06-29 23:35:00,77.4,69.6,29.83,SSE,153,0.0,8.7,77,0.00,,---,0.00,VWS V14.01,2013-06-30 03:35:00,
2013-06-29 23:36:00,77.4,69.6,29.83,SSE,158,5.4,8.7,77,0.00,,---,0.00,VWS V14.01,2013-06-30 03:36:00,
2013-06-29 23:38:00,77.4,69.6,29.83,SE,141,5.8,5.8,77,0.00,,---,0.00,VWS V14.01,2013-06-30 03:38:00,
2013-06-29 23:39:00,77.4,69.6,29.83,SE,139,4.0,4.0,77,0.00,,---,0.00,VWS V14.01,2013-06-30 03:39:00,
2013-06-29 23:41:00,77.4,69.6,29.83,SE,130,5.8,8.1,77,0.00,,---,0.00,VWS V14.01,2013-06-30 03:41:00,
2013-06-29 23:43:00,77.4,69.6,29.83,SW,214,4.0,4.0,77,0.00,,---,0.00,VWS V14.01,2013-06-30 03:43:00,
2013-06-29 23:44:00,77.4,69.6,29.83,South,172,4.0,5.8,77,0.00,,---,0.00,VWS V14.01,2013-06-30 03:44:00,
2013-06-29 23:46:00,77.4,69.6,29.83,SSE,168,8.1,8.1,77,0.00,,---,0.00,VWS V14.01,2013-06-30 03:46:00,
2013-06-29 23:48:00,77.4,69.2,29.83,South,187,5.8,5.8,76,0.00,,---,0.00,VWS V14.01,2013-06-30 03:48:00,
2013-06-29 23:49:00,77.4,68.8,29.83,South,176,5.8,5.8,75,0.00,,---,0.00,VWS V14.01,2013-06-30 03:49:00,
2013-06-29 23:51:00,77.4,68.8,29.83,South,176,6.7,11.0,75,0.00,,---,0.00,VWS V14.01,2013-06-30 03:51:00,
2013-06-29 23:53:00,77.4,68.0,29.83,SSW,192,6.3,6.3,73,0.00,,---,0.00,VWS V14.01,2013-06-30 03:53:00,
2013-06-29 23:54:00,77.4,67.6,29.83,SSW,192,6.3,6.3,72,0.00,,---,0.00,VWS V14.01,2013-06-30 03:54:00,
2013-06-29 23:56:00,77.4,67.2,29.83,South,169,4.0,4.0,71,0.00,,---,0.00,VWS V14.01,2013-06-30 03:56:00,
2013-06-29 23:58:00,77.4,67.2,29.83,South,179,4.0,4.0,71,0.00,,---,0.00,VWS V14.01,2013-06-30 03:58:00,
2013-06-29 23:59:00,77.4,66.0,29.83,WSW,237,5.4,5.4,68,0.00,,---,0.00,VWS V14.01,2013-06-30 03:59:00,